Observation data for Fort McKavett on 01/19/2019      Previous  Date  Next       Current Mesonet Observations  Soil Data  Daily Summary Page  Observations in Plain Language
KMC1 190600Z 30015G21KT 15/M03 A2992 RMK A01 T01521028  RH  029%=      5-min Rain = 0
KMC1 190601Z 28017KT 15/M03 A2993 RMK A01 T01531027  RH  029%=      5-min Rain = 0
KMC1 190602Z 29013G18KT 15/M03 A2993 RMK A01 T01531028  RH  029%=      5-min Rain = 0
KMC1 190603Z 28015G21KT 15/M03 A2993 RMK A01 T01521026  RH  029%=      5-min Rain = 0
KMC1 190604Z 30018G23KT 15/M03 A2993 RMK A01 T01521027  RH  029%=      5-min Rain = 0
KMC1 190605Z 29015G22KT 15/M03 A2993 RMK A01 T01521026  RH  029%=      5-min Rain = 0
KMC1 190606Z 30014KT 15/M03 A2993 RMK A01 T01511025  RH  030%=      5-min Rain = 0
KMC1 190607Z 30010KT 15/M03 A2993 RMK A01 T01511025  RH  030%=      5-min Rain = 0
KMC1 190608Z 30013G18KT 15/M02 A2993 RMK A01 T01501023  RH  030%=      5-min Rain = 0
KMC1 190609Z 31011KT 15/M02 A2993 RMK A01 T01491022  RH  031%=      5-min Rain = 0
KMC1 190610Z 30011KT 15/M02 A2993 RMK A01 T01481021  RH  031%=      5-min Rain = 0
KMC1 190611Z 30011KT 15/M02 A2993 RMK A01 T01471020  RH  032%=      5-min Rain = 0
KMC1 190612Z 31009KT 15/M02 A2993 RMK A01 T01471018  RH  032%=      5-min Rain = 0
KMC1 190613Z 32010G16KT 15/M02 A2993 RMK A01 T01461017  RH  033%=      5-min Rain = 0
KMC1 190614Z 30010KT 15/M01 A2994 RMK A01 T01451012  RH  034%=      5-min Rain = 0
KMC1 190615Z 30011G17KT 14/M01 A2994 RMK A01 T01441011  RH  034%=      5-min Rain = 0
KMC1 190616Z 31017G23KT 14/M01 A2994 RMK A01 T01431008  RH  036%=      5-min Rain = 0
KMC1 190617Z 31018G23KT 14/M00 A2994 RMK A01 T01421002  RH  037%=      5-min Rain = 0
KMC1 190618Z 30013G19KT 14/00 A2994 RMK A01 T014100-0  RH  038%=      5-min Rain = 0
KMC1 190619Z 30017KT 14/00 A2994 RMK A01 T01400001  RH  039%=      5-min Rain = 0
KMC1 190620Z 31019G26KT 14/01 A2994 RMK A01 T01390005  RH  040%=      5-min Rain = 0
KMC1 190621Z 30020KT 14/01 A2994 RMK A01 T01380006  RH  041%=      5-min Rain = 0
KMC1 190622Z 29019G24KT 14/01 A2994 RMK A01 T01370007  RH  041%=      5-min Rain = 0
KMC1 190623Z 30018KT 14/01 A2994 RMK A01 T01360009  RH  042%=      5-min Rain = 0
KMC1 190624Z 30016G22KT 14/01 A2994 RMK A01 T01350011  RH  043%=      5-min Rain = 0
KMC1 190625Z 30020KT 14/01 A2994 RMK A01 T01350013  RH  043%=      5-min Rain = 0
KMC1 190626Z 30017G26KT 13/01 A2994 RMK A01 T01340014  RH  044%=      5-min Rain = 0
KMC1 190627Z 30018KT 13/02 A2995 RMK A01 T01330015  RH  045%=      5-min Rain = 0
KMC1 190628Z 30019G24KT 13/02 A2995 RMK A01 T01320015  RH  045%=      5-min Rain = 0
KMC1 190629Z 30018KT 13/02 A2995 RMK A01 T01320015  RH  045%=      5-min Rain = 0
KMC1 190630Z 30016G22KT 13/02 A2995 RMK A01 T01310016  RH  045%=      5-min Rain = 0
KMC1 190631Z 30019G24KT 13/02 A2996 RMK A01 T01310016  RH  046%=      5-min Rain = 0
KMC1 190632Z 30014G19KT 13/02 A2996 RMK A01 T01300016  RH  046%=      5-min Rain = 0
KMC1 190633Z 30018G26KT 13/02 A2996 RMK A01 T01300016  RH  046%=      5-min Rain = 0
KMC1 190634Z 30019KT 13/02 A2996 RMK A01 T01290016  RH  046%=      5-min Rain = 0
KMC1 190635Z 29019G25KT 13/02 A2996 RMK A01 T01290016  RH  046%=      5-min Rain = 0
KMC1 190636Z 29013KT 13/02 A2996 RMK A01 T01290016  RH  046%=      5-min Rain = 0
KMC1 190637Z 29021G26KT 13/02 A2996 RMK A01 T01280017  RH  047%=      5-min Rain = 0
KMC1 190638Z 30020G25KT 13/02 A2996 RMK A01 T01270018  RH  047%=      5-min Rain = 0
KMC1 190639Z 30020KT 13/02 A2997 RMK A01 T01260019  RH  048%=      5-min Rain = 0
KMC1 190640Z 29020G27KT 13/02 A2997 RMK A01 T01250019  RH  048%=      5-min Rain = 0
KMC1 190641Z 30019KT 13/02 A2997 RMK A01 T01250019  RH  049%=      5-min Rain = 0
KMC1 190642Z 29019KT 13/02 A2997 RMK A01 T01250020  RH  049%=      5-min Rain = 0
KMC1 190643Z 28015G21KT 12/02 A2997 RMK A01 T01240020  RH  049%=      5-min Rain = 0
KMC1 190644Z 30015G21KT 12/02 A2997 RMK A01 T01230020  RH  049%=      5-min Rain = 0
KMC1 190645Z 29016G25KT 12/02 A2997 RMK A01 T01230020  RH  049%=      5-min Rain = 0
KMC1 190646Z 29011G16KT 12/02 A2997 RMK A01 T01230021  RH  050%=      5-min Rain = 0
KMC1 190647Z 29016G21KT 12/02 A2997 RMK A01 T01220020  RH  050%=      5-min Rain = 0
KMC1 190648Z 28017G28KT 12/02 A2997 RMK A01 T01210020  RH  050%=      5-min Rain = 0
KMC1 190649Z 29021G26KT 12/02 A2997 RMK A01 T01210020  RH  050%=      5-min Rain = 0
KMC1 190650Z 28019KT 12/02 A2997 RMK A01 T01210019  RH  050%=      5-min Rain = 0
KMC1 190651Z 29021G27KT 12/02 A2997 RMK A01 T01210019  RH  050%=      5-min Rain = 0
KMC1 190652Z 29015G23KT 12/02 A2998 RMK A01 T01200019  RH  050%=      5-min Rain = 0
KMC1 190653Z 28013KT 12/02 A2998 RMK A01 T01200019  RH  050%=      5-min Rain = 0
KMC1 190654Z 28016G25KT 12/02 A2998 RMK A01 T01190019  RH  050%=      5-min Rain = 0
KMC1 190655Z 28019G26KT 12/02 A2998 RMK A01 T01190019  RH  050%=      5-min Rain = 0
KMC1 190656Z 29022G27KT 12/02 A2998 RMK A01 T01190019  RH  050%=      5-min Rain = 0
KMC1 190657Z 28015G20KT 12/02 A2998 RMK A01 T01190020  RH  051%=      5-min Rain = 0
KMC1 190658Z 29019G24KT 12/02 A2998 RMK A01 T01180020  RH  051%=      5-min Rain = 0
KMC1 190659Z 29018G23KT 12/02 A2998 RMK A01 T01180020  RH  051%=      5-min Rain = 0
KMC1 190700Z 30013G19KT 12/02 A2998 RMK A01 T01170020  RH  051%=      5-min Rain = 0
KMC1 190701Z 30016G21KT 12/02 A2998 RMK A01 T01170021  RH  052%=      5-min Rain = 0
KMC1 190702Z 29013G18KT 12/02 A2998 RMK A01 T01160021  RH  052%=      5-min Rain = 0
KMC1 190703Z 28016G21KT 12/02 A2998 RMK A01 T01150021  RH  052%=      5-min Rain = 0
KMC1 190704Z 29018KT 12/02 A2998 RMK A01 T01150021  RH  052%=      5-min Rain = 0
KMC1 190705Z 29015G23KT 11/02 A2998 RMK A01 T01140021  RH  053%=      5-min Rain = 0
KMC1 190706Z 29016G21KT 11/02 A2998 RMK A01 T01140022  RH  053%=      5-min Rain = 0
KMC1 190707Z 29015G21KT 11/02 A2999 RMK A01 T01130022  RH  054%=      5-min Rain = 0
KMC1 190708Z 29015KT 11/02 A2998 RMK A01 T01130022  RH  054%=      5-min Rain = 0
KMC1 190709Z 29011G18KT 11/02 A2998 RMK A01 T01120023  RH  054%=      5-min Rain = 0
KMC1 190710Z 30010G16KT 11/02 A2998 RMK A01 T01110023  RH  055%=      5-min Rain = 0
KMC1 190711Z 30012G17KT 11/02 A2998 RMK A01 T01100024  RH  055%=      5-min Rain = 0
KMC1 190712Z 30011G19KT 11/02 A2998 RMK A01 T01090024  RH  055%=      5-min Rain = 0
KMC1 190713Z 29015G22KT 11/02 A2998 RMK A01 T01090024  RH  056%=      5-min Rain = 0
KMC1 190714Z 30015KT 11/02 A2998 RMK A01 T01090024  RH  056%=      5-min Rain = 0
KMC1 190715Z 30011KT 11/03 A2998 RMK A01 T01090025  RH  056%=      5-min Rain = 0
KMC1 190716Z 30012KT 11/03 A2998 RMK A01 T01080025  RH  056%=      5-min Rain = 0
KMC1 190717Z 30017G23KT 11/03 A2998 RMK A01 T01070025  RH  057%=      5-min Rain = 0
KMC1 190718Z 30014KT 11/03 A2998 RMK A01 T01070025  RH  057%=      5-min Rain = 0
KMC1 190719Z 30013KT 11/03 A2998 RMK A01 T01060025  RH  057%=      5-min Rain = 0
KMC1 190720Z 30012G22KT 11/03 A2998 RMK A01 T01050026  RH  058%=      5-min Rain = 0
KMC1 190721Z 30016G22KT 11/03 A2998 RMK A01 T01050026  RH  058%=      5-min Rain = 0
KMC1 190722Z 30017KT 10/03 A2998 RMK A01 T01040027  RH  059%=      5-min Rain = 0
KMC1 190723Z 30016G21KT 10/03 A2998 RMK A01 T01040028  RH  059%=      5-min Rain = 0
KMC1 190724Z 29015G20KT 10/03 A2998 RMK A01 T01030029  RH  060%=      5-min Rain = 0
KMC1 190725Z 30019G24KT 10/03 A2999 RMK A01 T01020029  RH  061%=      5-min Rain = 0
KMC1 190726Z 31020G27KT 10/03 A2999 RMK A01 T01010029  RH  061%=      5-min Rain = 0
KMC1 190727Z 30021KT 10/03 A2999 RMK A01 T01010029  RH  061%=      5-min Rain = 0
KMC1 190728Z 30022G28KT 10/03 A2999 RMK A01 T01000029  RH  061%=      5-min Rain = 0
KMC1 190729Z 30022G27KT 10/03 A2999 RMK A01 T01000030  RH  062%=      5-min Rain = 0
KMC1 190730Z 30021G28KT 10/03 A2999 RMK A01 T00990030  RH  062%=      5-min Rain = 0
KMC1 190731Z 30022G28KT 10/03 A2999 RMK A01 T00990030  RH  062%=      5-min Rain = 0
KMC1 190732Z 30023G31KT 10/03 A2999 RMK A01 T00990030  RH  063%=      5-min Rain = 0
KMC1 190733Z 30016G21KT 10/03 A2999 RMK A01 T00980031  RH  063%=      5-min Rain = 0
KMC1 190734Z 30020G26KT 10/03 A30 RMK A01 T00980030  RH  063%=      5-min Rain = 0
KMC1 190735Z 30017G22KT 10/03 A30 RMK A01 T00980030  RH  063%=      5-min Rain = 0
KMC1 190736Z 31017G23KT 10/03 A30 RMK A01 T00980031  RH  063%=      5-min Rain = 0
KMC1 190737Z 30015G20KT 10/03 A30 RMK A01 T00970030  RH  063%=      5-min Rain = 0
KMC1 190738Z 30016G25KT 10/03 A30 RMK A01 T00960030  RH  063%=      5-min Rain = 0
KMC1 190739Z 30017KT 10/03 A30 RMK A01 T00960030  RH  063%=      5-min Rain = 0
KMC1 190740Z 31016G22KT 10/03 A30 RMK A01 T00960030  RH  063%=      5-min Rain = 0
KMC1 190741Z 31014G20KT 10/03 A30 RMK A01 T00960030  RH  063%=      5-min Rain = 0
KMC1 190742Z 31013G19KT 10/03 A30 RMK A01 T00950029  RH  063%=      5-min Rain = 0
KMC1 190743Z 31020G27KT 10/03 A30 RMK A01 T00950027  RH  062%=      5-min Rain = 0
KMC1 190744Z 31019G25KT 10/02 A30 RMK A01 T00950024  RH  061%=      5-min Rain = 0
KMC1 190745Z 31018G24KT 09/02 A30 RMK A01 T00940021  RH  060%=      5-min Rain = 0
KMC1 190746Z 31016G24KT 09/02 A30 RMK A01 T00940020  RH  060%=      5-min Rain = 0
KMC1 190747Z 31018G26KT 09/02 A30 RMK A01 T00930019  RH  060%=      5-min Rain = 0
KMC1 190748Z 31021G30KT 09/02 A30 RMK A01 T00930018  RH  059%=      5-min Rain = 0
KMC1 190749Z 31017KT 09/02 A30 RMK A01 T00930017  RH  059%=      5-min Rain = 0
KMC1 190750Z 31016G21KT 09/02 A30 RMK A01 T00920017  RH  059%=      5-min Rain = 0
KMC1 190751Z 31013KT 09/02 A3001 RMK A01 T00920017  RH  059%=      5-min Rain = 0
KMC1 190752Z 30013G18KT 09/02 A30 RMK A01 T00910017  RH  060%=      5-min Rain = 0
KMC1 190753Z 31014G20KT 09/02 A30 RMK A01 T00900016  RH  060%=      5-min Rain = 0
KMC1 190754Z 31015KT 09/02 A30 RMK A01 T00900016  RH  060%=      5-min Rain = 0
KMC1 190755Z 31019G25KT 09/02 A3001 RMK A01 T00900016  RH  060%=      5-min Rain = 0
KMC1 190756Z 30018KT 09/02 A3001 RMK A01 T00900015  RH  059%=      5-min Rain = 0
KMC1 190757Z 30019KT 09/01 A3001 RMK A01 T00900014  RH  059%=      5-min Rain = 0
KMC1 190758Z 31020KT 09/02 A3001 RMK A01 T00900015  RH  059%=      5-min Rain = 0
KMC1 190759Z 32017G23KT 09/01 A3001 RMK A01 T00900014  RH  059%=      5-min Rain = 0
KMC1 190800Z 30017G22KT 09/01 A3001 RMK A01 T00900013  RH  059%=      5-min Rain = 0
KMC1 190801Z 31017KT 09/01 A3001 RMK A01 T00890013  RH  059%=      5-min Rain = 0
KMC1 190802Z 31019G24KT 09/01 A3001 RMK A01 T00900013  RH  059%=      5-min Rain = 0
KMC1 190803Z 31016KT 09/01 A3001 RMK A01 T00890013  RH  059%=      5-min Rain = 0
KMC1 190804Z 31013G18KT 09/01 A3002 RMK A01 T00900013  RH  059%=      5-min Rain = 0
KMC1 190805Z 31017KT 09/01 A3002 RMK A01 T00890013  RH  059%=      5-min Rain = 0
KMC1 190806Z 32016G23KT 09/01 A3002 RMK A01 T00890012  RH  058%=      5-min Rain = 0
KMC1 190807Z 31014G19KT 09/01 A3002 RMK A01 T00890011  RH  058%=      5-min Rain = 0
KMC1 190808Z 31017G22KT 09/01 A3002 RMK A01 T00890011  RH  058%=      5-min Rain = 0
KMC1 190809Z 31014G22KT 09/01 A3002 RMK A01 T00880010  RH  058%=      5-min Rain = 0
KMC1 190810Z 32016KT 09/01 A3002 RMK A01 T00870008  RH  058%=      5-min Rain = 0
KMC1 190811Z 32012G18KT 09/01 A3002 RMK A01 T00870009  RH  058%=      5-min Rain = 0
KMC1 190812Z 31017G22KT 09/01 A3002 RMK A01 T00870008  RH  058%=      5-min Rain = 0
KMC1 190813Z 30014G21KT 09/01 A3002 RMK A01 T00860008  RH  058%=      5-min Rain = 0
KMC1 190814Z 31016KT 09/01 A3003 RMK A01 T00860008  RH  058%=      5-min Rain = 0
KMC1 190815Z 31013KT 09/01 A3003 RMK A01 T00860008  RH  058%=      5-min Rain = 0
KMC1 190816Z 30013G18KT 09/01 A3003 RMK A01 T00860009  RH  058%=      5-min Rain = 0
KMC1 190817Z 31013G20KT 09/01 A3003 RMK A01 T00860009  RH  058%=      5-min Rain = 0
KMC1 190818Z 31013KT 09/01 A3003 RMK A01 T00860008  RH  058%=      5-min Rain = 0
KMC1 190819Z 31014KT 09/01 A3003 RMK A01 T00850007  RH  058%=      5-min Rain = 0
KMC1 190820Z 32011KT 09/01 A3003 RMK A01 T00850007  RH  058%=      5-min Rain = 0
KMC1 190821Z 32013KT 08/01 A3003 RMK A01 T00840007  RH  058%=      5-min Rain = 0
KMC1 190822Z 32014G21KT 08/01 A3003 RMK A01 T00840007  RH  058%=      5-min Rain = 0
KMC1 190823Z 32013G19KT 08/01 A3003 RMK A01 T00820006  RH  059%=      5-min Rain = 0
KMC1 190824Z 31010G15KT 08/01 A3003 RMK A01 T00820006  RH  059%=      5-min Rain = 0
KMC1 190825Z 31012G18KT 08/01 A3004 RMK A01 T00810007  RH  059%=      5-min Rain = 0
KMC1 190826Z 32017G24KT 08/01 A3004 RMK A01 T00810005  RH  059%=      5-min Rain = 0
KMC1 190827Z 31014KT 08/00 A3003 RMK A01 T00800003  RH  058%=      5-min Rain = 0
KMC1 190828Z 31012G17KT 08/00 A3003 RMK A01 T00800002  RH  058%=      5-min Rain = 0
KMC1 190829Z 30014G23KT 08/00 A3003 RMK A01 T00790002  RH  058%=      5-min Rain = 0
KMC1 190830Z 31018G23KT 08/00 A3004 RMK A01 T00790001  RH  058%=      5-min Rain = 0
KMC1 190831Z 30013G20KT 08/00 A3004 RMK A01 T007900-0  RH  057%=      5-min Rain = 0
KMC1 190832Z 31017G22KT 08/M00 A3004 RMK A01 T00781002  RH  057%=      5-min Rain = 0
KMC1 190833Z 31013G18KT 08/M00 A3004 RMK A01 T00781002  RH  057%=      5-min Rain = 0
KMC1 190834Z 30014G19KT 08/M00 A3004 RMK A01 T00771003  RH  057%=      5-min Rain = 0
KMC1 190835Z 30015G21KT 08/M00 A3004 RMK A01 T00761003  RH  057%=      5-min Rain = 0
KMC1 190836Z 32018G24KT 08/M00 A3004 RMK A01 T00751004  RH  057%=      5-min Rain = 0
KMC1 190837Z 31019KT 08/M01 A3004 RMK A01 T00751006  RH  056%=      5-min Rain = 0
KMC1 190838Z 30017G25KT 08/M01 A3004 RMK A01 T00751006  RH  057%=      5-min Rain = 0
KMC1 190839Z 31015G22KT 07/M01 A3004 RMK A01 T00741007  RH  057%=      5-min Rain = 0
KMC1 190840Z 31018G23KT 07/M01 A3004 RMK A01 T00731008  RH  056%=      5-min Rain = 0
KMC1 190841Z 31017G23KT 07/M01 A3004 RMK A01 T00721009  RH  056%=      5-min Rain = 0
KMC1 190842Z 31013G20KT 07/M01 A3004 RMK A01 T00721009  RH  056%=      5-min Rain = 0
KMC1 190843Z 31015G20KT 07/M01 A3004 RMK A01 T00711010  RH  057%=      5-min Rain = 0
KMC1 190844Z 31014G23KT 07/M01 A3004 RMK A01 T00701010  RH  057%=      5-min Rain = 0
KMC1 190845Z 31019G25KT 07/M01 A3004 RMK A01 T00691012  RH  057%=      5-min Rain = 0
KMC1 190846Z 31014KT 07/M01 A3004 RMK A01 T00671013  RH  056%=      5-min Rain = 0
KMC1 190847Z 32017G26KT 07/M01 A3005 RMK A01 T00661013  RH  057%=      5-min Rain = 0
KMC1 190848Z 30017KT 07/M01 A3005 RMK A01 T00651014  RH  057%=      5-min Rain = 0
KMC1 190849Z 30017G23KT 07/M01 A3005 RMK A01 T00651014  RH  057%=      5-min Rain = 0
KMC1 190850Z 31013KT 06/M01 A3005 RMK A01 T00641014  RH  057%=      5-min Rain = 0
KMC1 190851Z 31016G26KT 06/M01 A3005 RMK A01 T00641014  RH  058%=      5-min Rain = 0
KMC1 190852Z 32020G27KT 06/M01 A3005 RMK A01 T00631014  RH  058%=      5-min Rain = 0
KMC1 190853Z 32017G22KT 06/M01 A3005 RMK A01 T00631014  RH  058%=      5-min Rain = 0
KMC1 190854Z 31014G19KT 06/M02 A3005 RMK A01 T00631015  RH  058%=      5-min Rain = 0
KMC1 190855Z 32014G19KT 06/M02 A3006 RMK A01 T00621015  RH  058%=      5-min Rain = 0
KMC1 190856Z 32017G26KT 06/M02 A3006 RMK A01 T00621015  RH  058%=      5-min Rain = 0
KMC1 190857Z 32016KT 06/M02 A3006 RMK A01 T00611015  RH  058%=      5-min Rain = 0
KMC1 190858Z 32011G16KT 06/M02 A3006 RMK A01 T00621015  RH  058%=      5-min Rain = 0
KMC1 190859Z 32012KT 06/M01 A3006 RMK A01 T00611014  RH  059%=      5-min Rain = 0
KMC1 190900Z 31012G21KT 06/M01 A3006 RMK A01 T00601014  RH  059%=      5-min Rain = 0
KMC1 190901Z 30016KT 06/M01 A3006 RMK A01 T00601014  RH  059%=      5-min Rain = 0
KMC1 190902Z 31014G19KT 06/M01 A3006 RMK A01 T00601014  RH  059%=      5-min Rain = 0
KMC1 190903Z 30015G21KT 06/M01 A3006 RMK A01 T00601014  RH  059%=      5-min Rain = 0
KMC1 190904Z 30012KT 06/M01 A3006 RMK A01 T00601014  RH  059%=      5-min Rain = 0
KMC1 190905Z 31014KT 06/M01 A3006 RMK A01 T00601014  RH  059%=      5-min Rain = 0
KMC1 190906Z 31011KT 06/M01 A3006 RMK A01 T00601014  RH  059%=      5-min Rain = 0
KMC1 190907Z 31012G17KT 06/M01 A3006 RMK A01 T00601013  RH  059%=      5-min Rain = 0
KMC1 190908Z 30017KT 06/M01 A3006 RMK A01 T00601013  RH  059%=      5-min Rain = 0
KMC1 190909Z 30015KT 06/M01 A3006 RMK A01 T00601013  RH  059%=      5-min Rain = 0
KMC1 190910Z 31014G19KT 06/M01 A3006 RMK A01 T00601014  RH  059%=      5-min Rain = 0
KMC1 190911Z 31012G18KT 06/M01 A3006 RMK A01 T00601014  RH  059%=      5-min Rain = 0
KMC1 190912Z 31014KT 06/M01 A3007 RMK A01 T00601013  RH  059%=      5-min Rain = 0
KMC1 190913Z 31013KT 06/M01 A3007 RMK A01 T00601013  RH  059%=      5-min Rain = 0
KMC1 190914Z 30010KT 06/M01 A3007 RMK A01 T00601013  RH  059%=      5-min Rain = 0
KMC1 190915Z 30012G19KT 06/M01 A3007 RMK A01 T00601013  RH  060%=      5-min Rain = 0
KMC1 190916Z 30014G20KT 06/M01 A3007 RMK A01 T00601012  RH  060%=      5-min Rain = 0
KMC1 190917Z 31014G20KT 06/M01 A3007 RMK A01 T00601012  RH  060%=      5-min Rain = 0
KMC1 190918Z 31014G21KT 06/M01 A3007 RMK A01 T00611012  RH  060%=      5-min Rain = 0
KMC1 190919Z 31013KT 06/M01 A3007 RMK A01 T00611012  RH  060%=      5-min Rain = 0
KMC1 190920Z 31011G16KT 06/M01 A3007 RMK A01 T00611012  RH  060%=      5-min Rain = 0
KMC1 190921Z 31016G21KT 06/M01 A3007 RMK A01 T00611012  RH  060%=      5-min Rain = 0
KMC1 190922Z 32014G19KT 06/M01 A3007 RMK A01 T00611012  RH  059%=      5-min Rain = 0
KMC1 190923Z 31015KT 06/M01 A3007 RMK A01 T00621011  RH  059%=      5-min Rain = 0
KMC1 190924Z 31016G21KT 06/M01 A3007 RMK A01 T00621011  RH  059%=      5-min Rain = 0
KMC1 190925Z 31014G20KT 06/M01 A3007 RMK A01 T00621012  RH  059%=      5-min Rain = 0
KMC1 190926Z 32017G22KT 06/M01 A3007 RMK A01 T00621011  RH  059%=      5-min Rain = 0
KMC1 190927Z 31011G17KT 06/M01 A3007 RMK A01 T00621012  RH  059%=      5-min Rain = 0
KMC1 190928Z 31009G14KT 06/M01 A3007 RMK A01 T00621011  RH  060%=      5-min Rain = 0
KMC1 190929Z 30016KT 06/M01 A3007 RMK A01 T00621010  RH  060%=      5-min Rain = 0
KMC1 190930Z 31013KT 06/M01 A3007 RMK A01 T00621010  RH  060%=      5-min Rain = 0
KMC1 190931Z 30018KT 06/M01 A3007 RMK A01 T00621010  RH  060%=      5-min Rain = 0
KMC1 190932Z 31014G19KT 06/M01 A3007 RMK A01 T00621011  RH  060%=      5-min Rain = 0
KMC1 190933Z 31014G21KT 06/M01 A3007 RMK A01 T00621011  RH  060%=      5-min Rain = 0
KMC1 190934Z 30015KT 06/M01 A3007 RMK A01 T00621011  RH  060%=      5-min Rain = 0
KMC1 190935Z 30010KT 06/M01 A3007 RMK A01 T00621010  RH  060%=      5-min Rain = 0
KMC1 190936Z 31009KT 06/M01 A3007 RMK A01 T00621009  RH  060%=      5-min Rain = 0
KMC1 190937Z 30016G21KT 06/M01 A3007 RMK A01 T00621009  RH  060%=      5-min Rain = 0
KMC1 190938Z 30013KT 06/M01 A3007 RMK A01 T00611010  RH  060%=      5-min Rain = 0
KMC1 190939Z 30011KT 06/M01 A3008 RMK A01 T00621009  RH  060%=      5-min Rain = 0
KMC1 190940Z 29015G21KT 06/M01 A3007 RMK A01 T00611009  RH  061%=      5-min Rain = 0
KMC1 190941Z 30011G18KT 06/M01 A3008 RMK A01 T00621009  RH  061%=      5-min Rain = 0
KMC1 190942Z 30015G21KT 06/M01 A3008 RMK A01 T00611009  RH  061%=      5-min Rain = 0
KMC1 190943Z 30018G27KT 06/M01 A3008 RMK A01 T00621010  RH  060%=      5-min Rain = 0
KMC1 190944Z 30018KT 06/M01 A3008 RMK A01 T00621011  RH  060%=      5-min Rain = 0
KMC1 190945Z 29016KT 06/M01 A3008 RMK A01 T00611012  RH  059%=      5-min Rain = 0
KMC1 190946Z 30019G26KT 06/M01 A3008 RMK A01 T00611012  RH  060%=      5-min Rain = 0
KMC1 190947Z 29018KT 06/M01 A3008 RMK A01 T00611013  RH  059%=      5-min Rain = 0
KMC1 190948Z 30016KT 06/M01 A3008 RMK A01 T00601013  RH  059%=      5-min Rain = 0
KMC1 190949Z 30015KT 06/M01 A3008 RMK A01 T00601013  RH  059%=      5-min Rain = 0
KMC1 190950Z 30013G18KT 06/M01 A3008 RMK A01 T00601013  RH  059%=      5-min Rain = 0
KMC1 190951Z 30013KT 06/M01 A3008 RMK A01 T00601012  RH  060%=      5-min Rain = 0
KMC1 190952Z 30012KT 06/M01 A3008 RMK A01 T00591012  RH  060%=      5-min Rain = 0
KMC1 190953Z 30013G23KT 06/M01 A3008 RMK A01 T00591013  RH  060%=      5-min Rain = 0
KMC1 190954Z 30016G24KT 06/M01 A3008 RMK A01 T00591014  RH  060%=      5-min Rain = 0
KMC1 190955Z 30015G20KT 06/M01 A3008 RMK A01 T00581014  RH  060%=      5-min Rain = 0
KMC1 190956Z 30014KT 06/M01 A3008 RMK A01 T00581014  RH  060%=      5-min Rain = 0
KMC1 190957Z 29014G19KT 06/M01 A3009 RMK A01 T00581014  RH  060%=      5-min Rain = 0
KMC1 190958Z 30015G24KT 06/M01 A3009 RMK A01 T00581013  RH  060%=      5-min Rain = 0
KMC1 190959Z 29021G27KT 06/M01 A3009 RMK A01 T00571013  RH  060%=      5-min Rain = 0
KMC1 191000Z 31019G25KT 06/M01 A3009 RMK A01 T00571014  RH  060%=      5-min Rain = 0
KMC1 191001Z 31012G17KT 06/M01 A3009 RMK A01 T00571014  RH  060%=      5-min Rain = 0
KMC1 191002Z 30015G21KT 06/M01 A3009 RMK A01 T00571014  RH  060%=      5-min Rain = 0
KMC1 191003Z 31014G19KT 06/M01 A3009 RMK A01 T00571014  RH  060%=      5-min Rain = 0
KMC1 191004Z 30014G20KT 06/M01 A3009 RMK A01 T00571014  RH  061%=      5-min Rain = 0
KMC1 191005Z 30016KT 06/M01 A3009 RMK A01 T00571013  RH  061%=      5-min Rain = 0
KMC1 191006Z 30018KT 06/M01 A301 RMK A01 T00571013  RH  061%=      5-min Rain = 0
KMC1 191007Z 29014G21KT 06/M01 A301 RMK A01 T00561013  RH  061%=      5-min Rain = 0
KMC1 191008Z 30017KT 06/M01 A301 RMK A01 T00561013  RH  061%=      5-min Rain = 0
KMC1 191009Z 31014G22KT 06/M01 A301 RMK A01 T00561013  RH  061%=      5-min Rain = 0
KMC1 191010Z 31015G20KT 06/M01 A301 RMK A01 T00561013  RH  061%=      5-min Rain = 0
KMC1 191011Z 31010G16KT 06/M01 A301 RMK A01 T00561013  RH  061%=      5-min Rain = 0
KMC1 191012Z 31014G19KT 06/M01 A301 RMK A01 T00561012  RH  062%=      5-min Rain = 0
KMC1 191013Z 30014G19KT 06/M01 A301 RMK A01 T00551012  RH  062%=      5-min Rain = 0
KMC1 191014Z 31014G20KT 06/M01 A301 RMK A01 T00551012  RH  062%=      5-min Rain = 0
KMC1 191015Z 31017G22KT 06/M01 A301 RMK A01 T00551012  RH  062%=      5-min Rain = 0
KMC1 191016Z 30013KT 06/M01 A301 RMK A01 T00551012  RH  062%=      5-min Rain = 0
KMC1 191017Z 30016KT 05/M01 A301 RMK A01 T00541012  RH  062%=      5-min Rain = 0
KMC1 191018Z 30017KT 05/M01 A301 RMK A01 T00541011  RH  063%=      5-min Rain = 0
KMC1 191019Z 30014G20KT 05/M01 A301 RMK A01 T00541011  RH  063%=      5-min Rain = 0
KMC1 191020Z 30017G22KT 05/M01 A301 RMK A01 T00541011  RH  063%=      5-min Rain = 0
KMC1 191021Z 30017KT 05/M01 A301 RMK A01 T00541011  RH  063%=      5-min Rain = 0
KMC1 191022Z 31018KT 05/M01 A301 RMK A01 T00541011  RH  063%=      5-min Rain = 0
KMC1 191023Z 31018G23KT 05/M01 A301 RMK A01 T00531012  RH  063%=      5-min Rain = 0
KMC1 191024Z 31016KT 05/M01 A301 RMK A01 T00531012  RH  063%=      5-min Rain = 0
KMC1 191025Z 31017KT 05/M01 A301 RMK A01 T00531012  RH  063%=      5-min Rain = 0
KMC1 191026Z 31018G25KT 05/M01 A301 RMK A01 T00521013  RH  063%=      5-min Rain = 0
KMC1 191027Z 31016G22KT 05/M01 A3011 RMK A01 T00521012  RH  063%=      5-min Rain = 0
KMC1 191028Z 31019G26KT 05/M01 A3011 RMK A01 T00511012  RH  063%=      5-min Rain = 0
KMC1 191029Z 32018G24KT 05/M01 A3011 RMK A01 T00511013  RH  063%=      5-min Rain = 0
KMC1 191030Z 31016G21KT 05/M01 A3011 RMK A01 T00511012  RH  064%=      5-min Rain = 0
KMC1 191031Z 30018G23KT 05/M01 A3011 RMK A01 T00501012  RH  064%=      5-min Rain = 0
KMC1 191032Z 31016G23KT 05/M01 A3011 RMK A01 T00501012  RH  064%=      5-min Rain = 0
KMC1 191033Z 31019KT 05/M01 A3011 RMK A01 T00501012  RH  064%=      5-min Rain = 0
KMC1 191034Z 31015KT 05/M01 A3011 RMK A01 T00491012  RH  065%=      5-min Rain = 0
KMC1 191035Z 31019KT 05/M01 A3011 RMK A01 T00491011  RH  065%=      5-min Rain = 0
KMC1 191036Z 30018G23KT 05/M01 A3011 RMK A01 T00491011  RH  065%=      5-min Rain = 0
KMC1 191037Z 31014KT 05/M01 A3012 RMK A01 T00481011  RH  066%=      5-min Rain = 0
KMC1 191038Z 32017G23KT 05/M01 A3012 RMK A01 T00481011  RH  066%=      5-min Rain = 0
KMC1 191039Z 32017G23KT 05/M01 A3012 RMK A01 T00471011  RH  066%=      5-min Rain = 0
KMC1 191040Z 31014G22KT 05/M01 A3012 RMK A01 T00471011  RH  066%=      5-min Rain = 0
KMC1 191041Z 31014KT 05/M01 A3012 RMK A01 T00471010  RH  066%=      5-min Rain = 0
KMC1 191042Z 32010G15KT 05/M01 A3012 RMK A01 T00471010  RH  066%=      5-min Rain = 0
KMC1 191043Z 31011G16KT 05/M01 A3012 RMK A01 T00471010  RH  067%=      5-min Rain = 0
KMC1 191044Z 31013KT 05/M01 A3012 RMK A01 T00471010  RH  067%=      5-min Rain = 0
KMC1 191045Z 32020G25KT 05/M01 A3013 RMK A01 T00461011  RH  067%=      5-min Rain = 0
KMC1 191046Z 32016G21KT 05/M01 A3013 RMK A01 T00461012  RH  066%=      5-min Rain = 0
KMC1 191047Z 32016KT 05/M01 A3013 RMK A01 T00461011  RH  067%=      5-min Rain = 0
KMC1 191048Z 32013G20KT 05/M01 A3013 RMK A01 T00451012  RH  067%=      5-min Rain = 0
KMC1 191049Z 31014G19KT 05/M01 A3013 RMK A01 T00451012  RH  067%=      5-min Rain = 0
KMC1 191050Z 30013G18KT 05/M01 A3013 RMK A01 T00451011  RH  067%=      5-min Rain = 0
KMC1 191051Z 31016G21KT 05/M01 A3013 RMK A01 T00451011  RH  067%=      5-min Rain = 0
KMC1 191052Z 32014KT 05/M01 A3013 RMK A01 T00451012  RH  067%=      5-min Rain = 0
KMC1 191053Z 32016KT 04/M01 A3013 RMK A01 T00441013  RH  066%=      5-min Rain = 0
KMC1 191054Z 32012G17KT 05/M01 A3013 RMK A01 T00451012  RH  066%=      5-min Rain = 0
KMC1 191055Z 32011KT 04/M01 A3013 RMK A01 T00441012  RH  067%=      5-min Rain = 0
KMC1 191056Z 32015KT 05/M01 A3013 RMK A01 T00451012  RH  066%=      5-min Rain = 0
KMC1 191057Z 31013KT 05/M01 A3013 RMK A01 T00451013  RH  066%=      5-min Rain = 0
KMC1 191058Z 32013KT 04/M01 A3013 RMK A01 T00441013  RH  066%=      5-min Rain = 0
KMC1 191059Z 32013KT 04/M01 A3013 RMK A01 T00441013  RH  066%=      5-min Rain = 0
KMC1 191100Z 32011G17KT 04/M01 A3013 RMK A01 T00441013  RH  066%=      5-min Rain = 0
KMC1 191101Z 32017G23KT 04/M01 A3013 RMK A01 T00441013  RH  067%=      5-min Rain = 0
KMC1 191102Z 32011G17KT 04/M01 A3013 RMK A01 T00441013  RH  067%=      5-min Rain = 0
KMC1 191103Z 32011KT 04/M01 A3013 RMK A01 T00441012  RH  067%=      5-min Rain = 0
KMC1 191104Z 31009G15KT 04/M01 A3014 RMK A01 T00441012  RH  067%=      5-min Rain = 0
KMC1 191105Z 31012KT 04/M01 A3013 RMK A01 T00441012  RH  067%=      5-min Rain = 0
KMC1 191106Z 32011G16KT 04/M01 A3014 RMK A01 T00441011  RH  067%=      5-min Rain = 0
KMC1 191107Z 32010KT 04/M01 A3014 RMK A01 T00441011  RH  068%=      5-min Rain = 0
KMC1 191108Z 31010KT 04/M01 A3014 RMK A01 T00431011  RH  068%=      5-min Rain = 0
KMC1 191109Z 33020G31KT 04/M01 A3014 RMK A01 T00431011  RH  068%=      5-min Rain = 0
KMC1 191110Z 33019G24KT 04/M01 A3014 RMK A01 T00431013  RH  067%=      5-min Rain = 0
KMC1 191111Z 32013G18KT 04/M01 A3014 RMK A01 T00431013  RH  067%=      5-min Rain = 0
KMC1 191112Z 32012KT 04/M01 A3014 RMK A01 T00431013  RH  067%=      5-min Rain = 0
KMC1 191113Z 32012KT 04/M01 A3014 RMK A01 T00431013  RH  067%=      5-min Rain = 0
KMC1 191114Z 31017KT 04/M01 A3014 RMK A01 T00431012  RH  067%=      5-min Rain = 0
KMC1 191115Z 32020G27KT 04/M01 A3014 RMK A01 T00421013  RH  067%=      5-min Rain = 0
KMC1 191116Z 31017KT 04/M01 A3014 RMK A01 T00421014  RH  067%=      5-min Rain = 0
KMC1 191117Z 32018G26KT 04/M01 A3014 RMK A01 T00421014  RH  067%=      5-min Rain = 0
KMC1 191118Z 32017G24KT 04/M02 A3014 RMK A01 T00411015  RH  067%=      5-min Rain = 0
KMC1 191119Z 32014G19KT 04/M02 A3015 RMK A01 T00411016  RH  067%=      5-min Rain = 0
KMC1 191120Z 33016G24KT 04/M02 A3015 RMK A01 T00401016  RH  067%=      5-min Rain = 0
KMC1 191121Z 32012G17KT 04/M02 A3015 RMK A01 T00401016  RH  067%=      5-min Rain = 0
KMC1 191122Z 32013G19KT 04/M02 A3015 RMK A01 T00391016  RH  067%=      5-min Rain = 0
KMC1 191123Z 33016G21KT 04/M02 A3015 RMK A01 T00381017  RH  067%=      5-min Rain = 0
KMC1 191124Z 32012G18KT 04/M02 A3015 RMK A01 T00381017  RH  067%=      5-min Rain = 0
KMC1 191125Z 32011KT 04/M02 A3015 RMK A01 T00371017  RH  068%=      5-min Rain = 0
KMC1 191126Z 31011G17KT 04/M02 A3015 RMK A01 T00371017  RH  068%=      5-min Rain = 0
KMC1 191127Z 31012KT 04/M02 A3015 RMK A01 T00361017  RH  068%=      5-min Rain = 0
KMC1 191128Z 33013KT 04/M02 A3015 RMK A01 T00361017  RH  068%=      5-min Rain = 0
KMC1 191129Z 32015G22KT 04/M02 A3015 RMK A01 T00351017  RH  069%=      5-min Rain = 0
KMC1 191130Z 32011G17KT 04/M02 A3015 RMK A01 T00351016  RH  069%=      5-min Rain = 0
KMC1 191131Z 32012KT 04/M02 A3015 RMK A01 T00351016  RH  069%=      5-min Rain = 0
KMC1 191132Z 32012KT 04/M02 A3015 RMK A01 T00351016  RH  069%=      5-min Rain = 0
KMC1 191133Z 32011KT 04/M02 A3015 RMK A01 T00351016  RH  070%=      5-min Rain = 0
KMC1 191134Z 32011KT 04/M02 A3015 RMK A01 T00351016  RH  070%=      5-min Rain = 0
KMC1 191135Z 32011KT 03/M02 A3015 RMK A01 T00341016  RH  070%=      5-min Rain = 0
KMC1 191136Z 31015KT 03/M02 A3015 RMK A01 T00341016  RH  070%=      5-min Rain = 0
KMC1 191137Z 32013KT 03/M02 A3015 RMK A01 T00341015  RH  070%=      5-min Rain = 0
KMC1 191138Z 32014G21KT 03/M02 A3015 RMK A01 T00331016  RH  070%=      5-min Rain = 0
KMC1 191139Z 31014G20KT 03/M02 A3015 RMK A01 T00331015  RH  071%=      5-min Rain = 0
KMC1 191140Z 32014G19KT 03/M02 A3016 RMK A01 T00331015  RH  071%=      5-min Rain = 0
KMC1 191141Z 32012KT 03/M02 A3016 RMK A01 T00331016  RH  070%=      5-min Rain = 0
KMC1 191142Z 31010KT 03/M02 A3015 RMK A01 T00331015  RH  071%=      5-min Rain = 0
KMC1 191143Z 32009KT 03/M01 A3016 RMK A01 T00331014  RH  071%=      5-min Rain = 0
KMC1 191144Z 31009KT 03/M02 A3016 RMK A01 T00321015  RH  071%=      5-min Rain = 0
KMC1 191145Z 32009KT 03/M01 A3016 RMK A01 T00331014  RH  071%=      5-min Rain = 0
KMC1 191146Z 32010KT 03/M01 A3016 RMK A01 T00331014  RH  071%=      5-min Rain = 0
KMC1 191147Z 32012KT 03/M01 A3016 RMK A01 T00331014  RH  071%=      5-min Rain = 0
KMC1 191148Z 32010KT 03/M01 A3016 RMK A01 T00331014  RH  071%=      5-min Rain = 0
KMC1 191149Z 31010KT 03/M01 A3016 RMK A01 T00321014  RH  071%=      5-min Rain = 0
KMC1 191150Z 32014G19KT 03/M01 A3016 RMK A01 T00321014  RH  071%=      5-min Rain = 0
KMC1 191151Z 32010KT 03/M02 A3016 RMK A01 T00321015  RH  071%=      5-min Rain = 0
KMC1 191152Z 32011G16KT 03/M01 A3016 RMK A01 T00321014  RH  072%=      5-min Rain = 0
KMC1 191153Z 31010KT 03/M01 A3016 RMK A01 T00321014  RH  072%=      5-min Rain = 0
KMC1 191154Z 32010KT 03/M01 A3016 RMK A01 T00321014  RH  072%=      5-min Rain = 0
KMC1 191155Z 32012G17KT 03/M01 A3016 RMK A01 T00321014  RH  072%=      5-min Rain = 0
KMC1 191156Z 32013G19KT 03/M01 A3016 RMK A01 T00321014  RH  072%=      5-min Rain = 0
KMC1 191157Z 31010KT 03/M01 A3016 RMK A01 T00321014  RH  072%=      5-min Rain = 0
KMC1 191158Z 32011G18KT 03/M01 A3016 RMK A01 T00321014  RH  072%=      5-min Rain = 0
KMC1 191159Z 32012KT 03/M01 A3016 RMK A01 T00321014  RH  072%=      5-min Rain = 0
KMC1 191200Z 31010KT 03/M01 A3016 RMK A01 T00321014  RH  072%=      5-min Rain = 0
KMC1 191201Z 30008KT 03/M01 A3016 RMK A01 T00321014  RH  072%=      5-min Rain = 0
KMC1 191202Z 32007KT 03/M01 A3016 RMK A01 T00311014  RH  072%=      5-min Rain = 0
KMC1 191203Z 32009KT 03/M01 A3016 RMK A01 T00311014  RH  072%=      5-min Rain = 0
KMC1 191204Z 31012KT 03/M01 A3016 RMK A01 T00311013  RH  073%=      5-min Rain = 0
KMC1 191205Z 32012KT 03/M01 A3016 RMK A01 T00311014  RH  073%=      5-min Rain = 0
KMC1 191206Z 31011G16KT 03/M01 A3016 RMK A01 T00311013  RH  073%=      5-min Rain = 0
KMC1 191207Z 31012G19KT 03/M01 A3016 RMK A01 T00311013  RH  073%=      5-min Rain = 0
KMC1 191208Z 31012KT 03/M01 A3016 RMK A01 T00311014  RH  073%=      5-min Rain = 0
KMC1 191209Z 32011KT 03/M01 A3016 RMK A01 T00311013  RH  073%=      5-min Rain = 0
KMC1 191210Z 31010KT 03/M01 A3016 RMK A01 T00311013  RH  072%=      5-min Rain = 0
KMC1 191211Z 32008KT 03/M01 A3016 RMK A01 T00311013  RH  072%=      5-min Rain = 0
KMC1 191212Z 31010KT 03/M01 A3016 RMK A01 T00311013  RH  073%=      5-min Rain = 0
KMC1 191213Z 32009KT 03/M01 A3016 RMK A01 T00311013  RH  073%=      5-min Rain = 0
KMC1 191214Z 32007KT 03/M01 A3016 RMK A01 T00311013  RH  073%=      5-min Rain = 0
KMC1 191215Z 32009KT 03/M01 A3016 RMK A01 T00311013  RH  073%=      5-min Rain = 0
KMC1 191216Z 32010KT 03/M01 A3017 RMK A01 T00311013  RH  073%=      5-min Rain = 0
KMC1 191217Z 32010KT 03/M01 A3016 RMK A01 T00301013  RH  073%=      5-min Rain = 0
KMC1 191218Z 30009KT 03/M01 A3016 RMK A01 T00301013  RH  073%=      5-min Rain = 0
KMC1 191219Z 31006KT 03/M01 A3017 RMK A01 T00301013  RH  073%=      5-min Rain = 0
KMC1 191220Z 31007KT 03/M01 A3017 RMK A01 T00291013  RH  073%=      5-min Rain = 0
KMC1 191221Z 32007KT 03/M01 A3017 RMK A01 T00301013  RH  074%=      5-min Rain = 0
KMC1 191222Z 31007KT 03/M01 A3017 RMK A01 T00291013  RH  074%=      5-min Rain = 0
KMC1 191223Z 31008KT 03/M01 A3017 RMK A01 T00291013  RH  074%=      5-min Rain = 0
KMC1 191224Z 30007KT 03/M01 A3017 RMK A01 T00291013  RH  074%=      5-min Rain = 0
KMC1 191225Z 30007KT 03/M01 A3017 RMK A01 T00291013  RH  074%=      5-min Rain = 0
KMC1 191226Z 31008KT 03/M01 A3017 RMK A01 T00291013  RH  074%=      5-min Rain = 0
KMC1 191227Z 30008KT 03/M01 A3017 RMK A01 T00281013  RH  074%=      5-min Rain = 0
KMC1 191228Z 30006KT 03/M01 A3017 RMK A01 T00291013  RH  074%=      5-min Rain = 0
KMC1 191229Z 30007KT 03/M01 A3017 RMK A01 T00291013  RH  074%=      5-min Rain = 0
KMC1 191230Z 30007KT 03/M01 A3017 RMK A01 T00281013  RH  074%=      5-min Rain = 0
KMC1 191231Z 30009KT 03/M01 A3017 RMK A01 T00281013  RH  075%=      5-min Rain = 0
KMC1 191232Z 30011KT 03/M01 A3017 RMK A01 T00281013  RH  075%=      5-min Rain = 0
KMC1 191233Z 31009KT 03/M01 A3017 RMK A01 T00281013  RH  075%=      5-min Rain = 0
KMC1 191234Z 31007KT 03/M01 A3017 RMK A01 T00281013  RH  075%=      5-min Rain = 0
KMC1 191235Z 30009KT 03/M01 A3017 RMK A01 T00281013  RH  075%=      5-min Rain = 0
KMC1 191236Z 30010KT 03/M01 A3017 RMK A01 T00281013  RH  075%=      5-min Rain = 0
KMC1 191237Z 31008KT 03/M01 A3017 RMK A01 T00281013  RH  074%=      5-min Rain = 0
KMC1 191238Z 30006KT 03/M01 A3017 RMK A01 T00281013  RH  074%=      5-min Rain = 0
KMC1 191239Z 30008KT 03/M01 A3017 RMK A01 T00281013  RH  074%=      5-min Rain = 0
KMC1 191240Z 30008KT 03/M01 A3017 RMK A01 T00281013  RH  074%=      5-min Rain = 0
KMC1 191241Z 30009KT 03/M01 A3017 RMK A01 T00281013  RH  075%=      5-min Rain = 0
KMC1 191242Z 30007KT 03/M01 A3017 RMK A01 T00281013  RH  074%=      5-min Rain = 0
KMC1 191243Z 31008KT 03/M01 A3017 RMK A01 T00281013  RH  075%=      5-min Rain = 0
KMC1 191244Z 31008KT 03/M01 A3017 RMK A01 T00281013  RH  075%=      5-min Rain = 0
KMC1 191245Z 30008KT 03/M01 A3017 RMK A01 T00281013  RH  075%=      5-min Rain = 0
KMC1 191246Z 31007KT 03/M01 A3017 RMK A01 T00281013  RH  075%=      5-min Rain = 0
KMC1 191247Z 30007KT 03/M01 A3017 RMK A01 T00281012  RH  075%=      5-min Rain = 0
KMC1 191248Z 30007KT 03/M01 A3017 RMK A01 T00291012  RH  075%=      5-min Rain = 0
KMC1 191249Z 31008G13KT 03/M01 A3017 RMK A01 T00291012  RH  075%=      5-min Rain = 0
KMC1 191250Z 30008KT 03/M01 A3017 RMK A01 T00291012  RH  074%=      5-min Rain = 0
KMC1 191251Z 30008KT 03/M01 A3017 RMK A01 T00291012  RH  074%=      5-min Rain = 0
KMC1 191252Z 30007KT 03/M01 A3017 RMK A01 T00301012  RH  074%=      5-min Rain = 0
KMC1 191253Z 30009KT 03/M01 A3017 RMK A01 T00301012  RH  074%=      5-min Rain = 0
KMC1 191254Z 31008KT 03/M01 A3017 RMK A01 T00301012  RH  074%=      5-min Rain = 0
KMC1 191255Z 31008KT 03/M01 A3017 RMK A01 T00311012  RH  074%=      5-min Rain = 0
KMC1 191256Z 31011KT 03/M01 A3017 RMK A01 T00311012  RH  074%=      5-min Rain = 0
KMC1 191257Z 30009KT 03/M01 A3017 RMK A01 T00321012  RH  073%=      5-min Rain = 0
KMC1 191258Z 30008KT 03/M01 A3017 RMK A01 T00321012  RH  073%=      5-min Rain = 0
KMC1 191259Z 31009KT 03/M01 A3017 RMK A01 T00321012  RH  073%=      5-min Rain = 0
KMC1 191300Z 30010KT 03/M01 A3018 RMK A01 T00321012  RH  073%=      5-min Rain = 0
KMC1 191301Z 31010KT 03/M01 A3018 RMK A01 T00321012  RH  073%=      5-min Rain = 0
KMC1 191302Z 31008KT 03/M01 A3018 RMK A01 T00321012  RH  073%=      5-min Rain = 0
KMC1 191303Z 31007KT 03/M01 A3018 RMK A01 T00331011  RH  073%=      5-min Rain = 0
KMC1 191304Z 31009KT 03/M01 A3018 RMK A01 T00331012  RH  073%=      5-min Rain = 0
KMC1 191305Z 30009KT 03/M01 A3018 RMK A01 T00331012  RH  073%=      5-min Rain = 0
KMC1 191306Z 31007KT 03/M01 A3018 RMK A01 T00331011  RH  073%=      5-min Rain = 0
KMC1 191307Z 31010KT 03/M01 A3018 RMK A01 T00331011  RH  073%=      5-min Rain = 0
KMC1 191308Z 31008KT 03/M01 A3018 RMK A01 T00341012  RH  072%=      5-min Rain = 0
KMC1 191309Z 30007KT 03/M01 A3018 RMK A01 T00341012  RH  072%=      5-min Rain = 0
KMC1 191310Z 31009KT 03/M01 A3018 RMK A01 T00341012  RH  072%=      5-min Rain = 0
KMC1 191311Z 30010KT 03/M01 A3018 RMK A01 T00341012  RH  072%=      5-min Rain = 0
KMC1 191312Z 30009KT 03/M01 A3018 RMK A01 T00341012  RH  072%=      5-min Rain = 0
KMC1 191313Z 31008G16KT 03/M01 A3018 RMK A01 T00341012  RH  072%=      5-min Rain = 0
KMC1 191314Z 31011G16KT 04/M01 A3018 RMK A01 T00351012  RH  072%=      5-min Rain = 0
KMC1 191315Z 30007KT 04/M01 A3018 RMK A01 T00351012  RH  071%=      5-min Rain = 0
KMC1 191316Z 30008KT 04/M01 A3019 RMK A01 T00351012  RH  071%=      5-min Rain = 0
KMC1 191317Z 30007KT 04/M01 A3019 RMK A01 T00361012  RH  071%=      5-min Rain = 0
KMC1 191318Z 30009KT 04/M01 A3019 RMK A01 T00351012  RH  071%=      5-min Rain = 0
KMC1 191319Z 31008KT 04/M01 A3019 RMK A01 T00351012  RH  071%=      5-min Rain = 0
KMC1 191320Z 30007KT 04/M01 A3019 RMK A01 T00351012  RH  071%=      5-min Rain = 0
KMC1 191321Z 29006KT 04/M01 A3019 RMK A01 T00351012  RH  071%=      5-min Rain = 0
KMC1 191322Z 30006KT 03/M01 A3019 RMK A01 T00341012  RH  072%=      5-min Rain = 0
KMC1 191323Z 30006KT 03/M01 A3019 RMK A01 T00341012  RH  072%=      5-min Rain = 0
KMC1 191324Z 29007KT 03/M01 A3019 RMK A01 T00331012  RH  072%=      5-min Rain = 0
KMC1 191325Z 30009KT 03/M01 A302 RMK A01 T00331012  RH  073%=      5-min Rain = 0
KMC1 191326Z 30012G17KT 03/M01 A302 RMK A01 T00331012  RH  073%=      5-min Rain = 0
KMC1 191327Z 30010KT 03/M01 A302 RMK A01 T00341012  RH  072%=      5-min Rain = 0
KMC1 191328Z 31010KT 03/M01 A302 RMK A01 T00341012  RH  072%=      5-min Rain = 0
KMC1 191329Z 30010KT 04/M01 A302 RMK A01 T00351012  RH  071%=      5-min Rain = 0
KMC1 191330Z 30009KT 04/M01 A302 RMK A01 T00361011  RH  071%=      5-min Rain = 0
KMC1 191331Z 30009KT 04/M01 A302 RMK A01 T00351012  RH  071%=      5-min Rain = 0
KMC1 191332Z 29009KT 04/M01 A302 RMK A01 T00351012  RH  072%=      5-min Rain = 0
KMC1 191333Z 30011KT 04/M01 A302 RMK A01 T00351012  RH  071%=      5-min Rain = 0
KMC1 191334Z 30013KT 04/M01 A302 RMK A01 T00351013  RH  071%=      5-min Rain = 0
KMC1 191335Z 30008KT 04/M01 A302 RMK A01 T00351013  RH  071%=      5-min Rain = 0
KMC1 191336Z 31010KT 04/M01 A302 RMK A01 T00351013  RH  071%=      5-min Rain = 0
KMC1 191337Z 31010KT 04/M01 A3021 RMK A01 T00361013  RH  071%=      5-min Rain = 0
KMC1 191338Z 30010KT 04/M01 A3021 RMK A01 T00351013  RH  071%=      5-min Rain = 0
KMC1 191339Z 30011KT 04/M01 A3021 RMK A01 T00351013  RH  071%=      5-min Rain = 0
KMC1 191340Z 30010KT 04/M01 A3021 RMK A01 T00351014  RH  070%=      5-min Rain = 0
KMC1 191341Z 30010KT 04/M01 A3021 RMK A01 T00351014  RH  070%=      5-min Rain = 0
KMC1 191342Z 30007KT 04/M01 A3021 RMK A01 T00351014  RH  070%=      5-min Rain = 0
KMC1 191343Z 30007KT 04/M01 A3021 RMK A01 T00351013  RH  071%=      5-min Rain = 0
KMC1 191344Z 31007KT 04/M01 A3021 RMK A01 T00351013  RH  071%=      5-min Rain = 0
KMC1 191345Z 30009KT 03/M01 A3021 RMK A01 T00331014  RH  071%=      5-min Rain = 0
KMC1 191346Z 30010KT 03/M01 A3021 RMK A01 T00331014  RH  072%=      5-min Rain = 0
KMC1 191347Z 30009KT 03/M01 A3021 RMK A01 T00331013  RH  072%=      5-min Rain = 0
KMC1 191348Z 30008KT 03/M01 A3021 RMK A01 T00341013  RH  072%=      5-min Rain = 0
KMC1 191349Z 30008KT 03/M01 A3021 RMK A01 T00341013  RH  072%=      5-min Rain = 0
KMC1 191350Z 29008KT 03/M01 A3021 RMK A01 T00331012  RH  072%=      5-min Rain = 0
KMC1 191351Z 29006KT 03/M01 A3022 RMK A01 T00331012  RH  072%=      5-min Rain = 0
KMC1 191352Z 29006G11KT 03/M01 A3022 RMK A01 T00331012  RH  072%=      5-min Rain = 0
KMC1 191353Z 27007KT 03/M01 A3022 RMK A01 T00331011  RH  073%=      5-min Rain = 0
KMC1 191354Z 29008KT 03/M01 A3022 RMK A01 T00331011  RH  073%=      5-min Rain = 0
KMC1 191355Z 29008KT 03/M01 A3022 RMK A01 T00331012  RH  073%=      5-min Rain = 0
KMC1 191356Z 30011KT 03/M01 A3022 RMK A01 T00331012  RH  073%=      5-min Rain = 0
KMC1 191357Z 29011KT 03/M01 A3022 RMK A01 T00331012  RH  073%=      5-min Rain = 0
KMC1 191358Z 29013KT 03/M01 A3022 RMK A01 T00331012  RH  072%=      5-min Rain = 0
KMC1 191359Z 30012KT 03/M01 A3022 RMK A01 T00331013  RH  072%=      5-min Rain = 0
KMC1 191400Z 29013KT 03/M01 A3022 RMK A01 T00331013  RH  071%=      5-min Rain = 0
KMC1 191401Z 30011G16KT 03/M01 A3022 RMK A01 T00341014  RH  071%=      5-min Rain = 0
KMC1 191402Z 30014KT 03/M01 A3022 RMK A01 T00341014  RH  071%=      5-min Rain = 0
KMC1 191403Z 30012KT 03/M02 A3022 RMK A01 T00341015  RH  070%=      5-min Rain = 0
KMC1 191404Z 30015KT 03/M02 A3022 RMK A01 T00341015  RH  070%=      5-min Rain = 0
KMC1 191405Z 30012KT 03/M02 A3022 RMK A01 T00341015  RH  070%=      5-min Rain = 0
KMC1 191406Z 30011KT 03/M02 A3022 RMK A01 T00341016  RH  070%=      5-min Rain = 0
KMC1 191407Z 30013KT 03/M02 A3022 RMK A01 T00341016  RH  070%=      5-min Rain = 0
KMC1 191408Z 30011KT 03/M02 A3022 RMK A01 T00341016  RH  070%=      5-min Rain = 0
KMC1 191409Z 30013KT 03/M02 A3022 RMK A01 T00341017  RH  069%=      5-min Rain = 0
KMC1 191410Z 30014KT 03/M02 A3022 RMK A01 T00341017  RH  069%=      5-min Rain = 0
KMC1 191411Z 30010KT 03/M02 A3022 RMK A01 T00341018  RH  069%=      5-min Rain = 0
KMC1 191412Z 30009KT 03/M02 A3022 RMK A01 T00341018  RH  069%=      5-min Rain = 0
KMC1 191413Z 29009KT 03/M02 A3022 RMK A01 T00341017  RH  069%=      5-min Rain = 0
KMC1 191414Z 31010G15KT 03/M02 A3022 RMK A01 T00341018  RH  069%=      5-min Rain = 0
KMC1 191415Z 31012KT 03/M02 A3022 RMK A01 T00341019  RH  068%=      5-min Rain = 0
KMC1 191416Z 30015G22KT 04/M02 A3022 RMK A01 T00351019  RH  068%=      5-min Rain = 0
KMC1 191417Z 30015G21KT 04/M02 A3022 RMK A01 T00351020  RH  067%=      5-min Rain = 0
KMC1 191418Z 31014KT 04/M02 A3023 RMK A01 T00351021  RH  066%=      5-min Rain = 0
KMC1 191419Z 31010G16KT 04/M02 A3023 RMK A01 T00361021  RH  066%=      5-min Rain = 0
KMC1 191420Z 30010KT 04/M02 A3023 RMK A01 T00361021  RH  066%=      5-min Rain = 0
KMC1 191421Z 29011KT 04/M02 A3023 RMK A01 T00361021  RH  066%=      5-min Rain = 0
KMC1 191422Z 31009KT 04/M02 A3023 RMK A01 T00361020  RH  066%=      5-min Rain = 0
KMC1 191423Z 31011KT 04/M02 A3023 RMK A01 T00361021  RH  066%=      5-min Rain = 0
KMC1 191424Z 30011G16KT 04/M02 A3023 RMK A01 T00361021  RH  066%=      5-min Rain = 0
KMC1 191425Z 31014KT 04/M02 A3023 RMK A01 T00371022  RH  066%=      5-min Rain = 0
KMC1 191426Z 31013KT 04/M02 A3023 RMK A01 T00371023  RH  065%=      5-min Rain = 0
KMC1 191427Z 30010KT 04/M02 A3023 RMK A01 T00371023  RH  065%=      5-min Rain = 0
KMC1 191428Z 31009KT 04/M02 A3023 RMK A01 T00371022  RH  065%=      5-min Rain = 0
KMC1 191429Z 31012G18KT 04/M02 A3023 RMK A01 T00381022  RH  065%=      5-min Rain = 0
KMC1 191430Z 31013KT 04/M02 A3023 RMK A01 T00381023  RH  064%=      5-min Rain = 0
KMC1 191431Z 30010KT 04/M02 A3024 RMK A01 T00381023  RH  064%=      5-min Rain = 0
KMC1 191432Z 31015G21KT 04/M02 A3024 RMK A01 T00381024  RH  064%=      5-min Rain = 0
KMC1 191433Z 31017G22KT 04/M03 A3024 RMK A01 T00381025  RH  063%=      5-min Rain = 0
KMC1 191434Z 31012G18KT 04/M03 A3024 RMK A01 T00391026  RH  063%=      5-min Rain = 0
KMC1 191435Z 31016G21KT 04/M03 A3024 RMK A01 T00391025  RH  063%=      5-min Rain = 0
KMC1 191436Z 30014G21KT 04/M03 A3024 RMK A01 T00391026  RH  062%=      5-min Rain = 0
KMC1 191437Z 31014G19KT 04/M03 A3024 RMK A01 T00391026  RH  063%=      5-min Rain = 0
KMC1 191438Z 31011KT 04/M03 A3024 RMK A01 T00391026  RH  062%=      5-min Rain = 0
KMC1 191439Z 30009KT 04/M02 A3024 RMK A01 T00401024  RH  063%=      5-min Rain = 0
KMC1 191440Z 31011KT 04/M02 A3024 RMK A01 T00401024  RH  063%=      5-min Rain = 0
KMC1 191441Z 31015G20KT 04/M03 A3025 RMK A01 T00411025  RH  062%=      5-min Rain = 0
KMC1 191442Z 31016KT 04/M03 A3024 RMK A01 T00411026  RH  062%=      5-min Rain = 0
KMC1 191443Z 31015KT 04/M03 A3025 RMK A01 T00411026  RH  061%=      5-min Rain = 0
KMC1 191444Z 31013G19KT 04/M03 A3024 RMK A01 T00411026  RH  062%=      5-min Rain = 0
KMC1 191445Z 31012KT 04/M03 A3025 RMK A01 T00411027  RH  061%=      5-min Rain = 0
KMC1 191446Z 31009G14KT 04/M03 A3025 RMK A01 T00411026  RH  062%=      5-min Rain = 0
KMC1 191447Z 30014G20KT 04/M02 A3025 RMK A01 T00421024  RH  062%=      5-min Rain = 0
KMC1 191448Z 30015G21KT 04/M02 A3025 RMK A01 T00431024  RH  062%=      5-min Rain = 0
KMC1 191449Z 31011G18KT 04/M03 A3025 RMK A01 T00431026  RH  061%=      5-min Rain = 0
KMC1 191450Z 30013KT 04/M03 A3025 RMK A01 T00421025  RH  062%=      5-min Rain = 0
KMC1 191451Z 30014KT 04/M03 A3025 RMK A01 T00431025  RH  062%=      5-min Rain = 0
KMC1 191452Z 30016G24KT 04/M03 A3025 RMK A01 T00431025  RH  061%=      5-min Rain = 0
KMC1 191453Z 31010G15KT 04/M03 A3025 RMK A01 T00421026  RH  061%=      5-min Rain = 0
KMC1 191454Z 31009KT 04/M03 A3025 RMK A01 T00431025  RH  061%=      5-min Rain = 0
KMC1 191455Z 30015G21KT 04/M03 A3025 RMK A01 T00431025  RH  061%=      5-min Rain = 0
KMC1 191456Z 30016KT 04/M03 A3025 RMK A01 T00431026  RH  061%=      5-min Rain = 0
KMC1 191457Z 31016G21KT 04/M03 A3025 RMK A01 T00431028  RH  060%=      5-min Rain = 0
KMC1 191458Z 31015G23KT 04/M03 A3026 RMK A01 T00421028  RH  060%=      5-min Rain = 0
KMC1 191459Z 31015G21KT 04/M03 A3026 RMK A01 T00421028  RH  060%=      5-min Rain = 0
KMC1 191500Z 31015KT 04/M03 A3026 RMK A01 T00421029  RH  060%=      5-min Rain = 0
KMC1 191501Z 31014G20KT 04/M03 A3026 RMK A01 T00421029  RH  060%=      5-min Rain = 0
KMC1 191502Z 31014KT 04/M03 A3026 RMK A01 T00421028  RH  060%=      5-min Rain = 0
KMC1 191503Z 31013G18KT 04/M03 A3026 RMK A01 T00431028  RH  060%=      5-min Rain = 0
KMC1 191504Z 31017G22KT 04/M03 A3026 RMK A01 T00431027  RH  060%=      5-min Rain = 0
KMC1 191505Z 32014G19KT 04/M03 A3026 RMK A01 T00431028  RH  060%=      5-min Rain = 0
KMC1 191506Z 31010KT 04/M03 A3026 RMK A01 T00431028  RH  060%=      5-min Rain = 0
KMC1 191507Z 32011G16KT 04/M03 A3026 RMK A01 T00441027  RH  060%=      5-min Rain = 0
KMC1 191508Z 31011G19KT 04/M03 A3026 RMK A01 T00441027  RH  060%=      5-min Rain = 0
KMC1 191509Z 30015G21KT 05/M03 A3026 RMK A01 T00451027  RH  060%=      5-min Rain = 0
KMC1 191510Z 31015KT 05/M03 A3026 RMK A01 T00451028  RH  059%=      5-min Rain = 0
KMC1 191511Z 32014KT 05/M03 A3026 RMK A01 T00451028  RH  059%=      5-min Rain = 0
KMC1 191512Z 32013G18KT 05/M03 A3026 RMK A01 T00451029  RH  058%=      5-min Rain = 0
KMC1 191513Z 32015G20KT 05/M03 A3026 RMK A01 T00451030  RH  058%=      5-min Rain = 0
KMC1 191514Z 32015G22KT 05/M03 A3027 RMK A01 T00451030  RH  058%=      5-min Rain = 0
KMC1 191515Z 31010KT 05/M03 A3027 RMK A01 T00451030  RH  058%=      5-min Rain = 0
KMC1 191516Z 30012KT 05/M03 A3027 RMK A01 T00461028  RH  059%=      5-min Rain = 0
KMC1 191517Z 31016KT 05/M03 A3027 RMK A01 T00471029  RH  058%=      5-min Rain = 0
KMC1 191518Z 31016KT 05/M03 A3027 RMK A01 T00471030  RH  058%=      5-min Rain = 0
KMC1 191519Z 32019G26KT 05/M03 A3026 RMK A01 T00471031  RH  057%=      5-min Rain = 0
KMC1 191520Z 32015KT 05/M03 A3026 RMK A01 T00461032  RH  057%=      5-min Rain = 0
KMC1 191521Z 32014G19KT 05/M03 A3027 RMK A01 T00461032  RH  057%=      5-min Rain = 0
KMC1 191522Z 31011KT 05/M03 A3027 RMK A01 T00461030  RH  058%=      5-min Rain = 0
KMC1 191523Z 31015G20KT 05/M03 A3027 RMK A01 T00471029  RH  058%=      5-min Rain = 0
KMC1 191524Z 31018G24KT 05/M03 A3027 RMK A01 T00481030  RH  057%=      5-min Rain = 0
KMC1 191525Z 30017G22KT 05/M03 A3027 RMK A01 T00471031  RH  057%=      5-min Rain = 0
KMC1 191526Z 31014G19KT 05/M03 A3027 RMK A01 T00471032  RH  057%=      5-min Rain = 0
KMC1 191527Z 31016KT 05/M03 A3027 RMK A01 T00471032  RH  057%=      5-min Rain = 0
KMC1 191528Z 31016G22KT 05/M03 A3027 RMK A01 T00471031  RH  057%=      5-min Rain = 0
KMC1 191529Z 30017G23KT 05/M03 A3027 RMK A01 T00471030  RH  057%=      5-min Rain = 0
KMC1 191530Z 30016KT 05/M03 A3027 RMK A01 T00481030  RH  057%=      5-min Rain = 0
KMC1 191531Z 31011G17KT 05/M03 A3027 RMK A01 T00491028  RH  057%=      5-min Rain = 0
KMC1 191532Z 31013KT 05/M03 A3027 RMK A01 T00511027  RH  057%=      5-min Rain = 0
KMC1 191533Z 32011G19KT 05/M03 A3027 RMK A01 T00511029  RH  056%=      5-min Rain = 0
KMC1 191534Z 29011G16KT 05/M03 A3027 RMK A01 T00521028  RH  056%=      5-min Rain = 0
KMC1 191535Z 30015G23KT 05/M03 A3027 RMK A01 T00531025  RH  057%=      5-min Rain = 0
KMC1 191536Z 30016G21KT 05/M03 A3027 RMK A01 T00541028  RH  055%=      5-min Rain = 0
KMC1 191537Z 30019G24KT 05/M03 A3027 RMK A01 T00541030  RH  055%=      5-min Rain = 0
KMC1 191538Z 31014G19KT 05/M03 A3027 RMK A01 T00531031  RH  055%=      5-min Rain = 0
KMC1 191539Z 31016G26KT 05/M03 A3028 RMK A01 T00531031  RH  055%=      5-min Rain = 0
KMC1 191540Z 30017G22KT 05/M03 A3028 RMK A01 T00531032  RH  054%=      5-min Rain = 0
KMC1 191541Z 30015KT 05/M03 A3028 RMK A01 T00531032  RH  054%=      5-min Rain = 0
KMC1 191542Z 30014G19KT 05/M03 A3028 RMK A01 T00531032  RH  054%=      5-min Rain = 0
KMC1 191543Z 31016KT 05/M03 A3028 RMK A01 T00531033  RH  054%=      5-min Rain = 0
KMC1 191544Z 31016G24KT 05/M03 A3028 RMK A01 T00531034  RH  053%=      5-min Rain = 0
KMC1 191545Z 32017G22KT 05/M03 A3028 RMK A01 T00531034  RH  054%=      5-min Rain = 0
KMC1 191546Z 32016G21KT 05/M03 A3028 RMK A01 T00521034  RH  053%=      5-min Rain = 0
KMC1 191547Z 32013G18KT 05/M03 A3028 RMK A01 T00521034  RH  054%=      5-min Rain = 0
KMC1 191548Z 31010KT 05/M03 A3028 RMK A01 T00531032  RH  054%=      5-min Rain = 0
KMC1 191549Z 30011G16KT 06/M03 A3028 RMK A01 T00551029  RH  054%=      5-min Rain = 0
KMC1 191550Z 31015G21KT 06/M03 A3028 RMK A01 T00571029  RH  054%=      5-min Rain = 0
KMC1 191551Z 30015G22KT 06/M03 A3028 RMK A01 T00581031  RH  053%=      5-min Rain = 0
KMC1 191552Z 31014G21KT 06/M03 A3028 RMK A01 T00581031  RH  053%=      5-min Rain = 0
KMC1 191553Z 32021G28KT 06/M03 A3028 RMK A01 T00571034  RH  052%=      5-min Rain = 0
KMC1 191554Z 32016KT 06/M04 A3028 RMK A01 T00561037  RH  051%=      5-min Rain = 0
KMC1 191555Z 30018KT 06/M03 A3028 RMK A01 T00561034  RH  053%=      5-min Rain = 0
KMC1 191556Z 32013KT 06/M03 A3028 RMK A01 T00571034  RH  052%=      5-min Rain = 0
KMC1 191557Z 33017G23KT 06/M04 A3028 RMK A01 T00571035  RH  052%=      5-min Rain = 0
KMC1 191558Z 32019G25KT 06/M04 A3028 RMK A01 T00561036  RH  052%=      5-min Rain = 0
KMC1 191559Z 32017G23KT 06/M04 A3028 RMK A01 T00561036  RH  051%=      5-min Rain = 0
KMC1 191600Z 33013G18KT 06/M04 A3028 RMK A01 T00561036  RH  052%=      5-min Rain = 0
KMC1 191601Z 32009KT 06/M03 A3029 RMK A01 T00571033  RH  052%=      5-min Rain = 0
KMC1 191602Z 31015G21KT 06/M03 A3029 RMK A01 T00591032  RH  052%=      5-min Rain = 0
KMC1 191603Z 30015G21KT 06/M04 A3028 RMK A01 T00601035  RH  051%=      5-min Rain = 0
KMC1 191604Z 32017G24KT 06/M04 A3029 RMK A01 T00601035  RH  050%=      5-min Rain = 0
KMC1 191605Z 32016G21KT 06/M04 A3029 RMK A01 T00591039  RH  049%=      5-min Rain = 0
KMC1 191606Z 31017G23KT 06/M04 A3029 RMK A01 T00581039  RH  050%=      5-min Rain = 0
KMC1 191607Z 32016KT 06/M04 A3029 RMK A01 T00581037  RH  050%=      5-min Rain = 0
KMC1 191608Z 32016KT 06/M04 A3029 RMK A01 T00591037  RH  050%=      5-min Rain = 0
KMC1 191609Z 32012KT 06/M04 A3029 RMK A01 T00591037  RH  050%=      5-min Rain = 0
KMC1 191610Z 30017G24KT 06/M03 A3029 RMK A01 T00601034  RH  051%=      5-min Rain = 0
KMC1 191611Z 32018G25KT 06/M04 A3029 RMK A01 T00611037  RH  049%=      5-min Rain = 0
KMC1 191612Z 31015G23KT 06/M04 A303 RMK A01 T00601039  RH  049%=      5-min Rain = 0
KMC1 191613Z 33017G23KT 06/M04 A303 RMK A01 T00601038  RH  049%=      5-min Rain = 0
KMC1 191614Z 33018KT 06/M04 A3029 RMK A01 T00601040  RH  049%=      5-min Rain = 0
KMC1 191615Z 32015G20KT 06/M04 A303 RMK A01 T00591039  RH  049%=      5-min Rain = 0
KMC1 191616Z 32013KT 06/M04 A303 RMK A01 T00591038  RH  050%=      5-min Rain = 0
KMC1 191617Z 31013KT 06/M04 A303 RMK A01 T00611035  RH  050%=      5-min Rain = 0
KMC1 191618Z 30015KT 06/M04 A303 RMK A01 T00631035  RH  050%=      5-min Rain = 0
KMC1 191619Z 31014G19KT 06/M04 A303 RMK A01 T00641035  RH  049%=      5-min Rain = 0
KMC1 191620Z 31018G24KT 07/M04 A303 RMK A01 T00651036  RH  049%=      5-min Rain = 0
KMC1 191621Z 30017G24KT 07/M04 A3029 RMK A01 T00651037  RH  048%=      5-min Rain = 0
KMC1 191622Z 32014G20KT 07/M04 A303 RMK A01 T00651037  RH  048%=      5-min Rain = 0
KMC1 191623Z 31017G22KT 07/M04 A303 RMK A01 T00651038  RH  048%=      5-min Rain = 0
KMC1 191624Z 32015KT 06/M04 A303 RMK A01 T00641038  RH  048%=      5-min Rain = 0
KMC1 191625Z 32014G19KT 07/M04 A303 RMK A01 T00651038  RH  048%=      5-min Rain = 0
KMC1 191626Z 33017KT 07/M04 A303 RMK A01 T00651039  RH  047%=      5-min Rain = 0
KMC1 191627Z 34013G18KT 07/M04 A303 RMK A01 T00651039  RH  048%=      5-min Rain = 0
KMC1 191628Z 32009G14KT 07/M04 A303 RMK A01 T00661035  RH  048%=      5-min Rain = 0
KMC1 191629Z 33008G13KT 07/M03 A303 RMK A01 T00691033  RH  048%=      5-min Rain = 0
KMC1 191630Z 31011G20KT 07/M03 A303 RMK A01 T00711033  RH  048%=      5-min Rain = 0
KMC1 191631Z 31014G20KT 07/M04 A303 RMK A01 T00721035  RH  046%=      5-min Rain = 0
KMC1 191632Z 32014G19KT 07/M04 A303 RMK A01 T00711037  RH  046%=      5-min Rain = 0
KMC1 191633Z 31017KT 07/M04 A303 RMK A01 T00701036  RH  047%=      5-min Rain = 0
KMC1 191634Z 33015G21KT 07/M04 A303 RMK A01 T00701037  RH  046%=      5-min Rain = 0
KMC1 191635Z 32012KT 07/M04 A303 RMK A01 T00701037  RH  047%=      5-min Rain = 0
KMC1 191636Z 31011KT 07/M04 A303 RMK A01 T00701036  RH  047%=      5-min Rain = 0
KMC1 191637Z 30018G26KT 07/M04 A303 RMK A01 T00711035  RH  047%=      5-min Rain = 0
KMC1 191638Z 31015G20KT 07/M04 A303 RMK A01 T00711036  RH  046%=      5-min Rain = 0
KMC1 191639Z 32015KT 07/M04 A303 RMK A01 T00711036  RH  047%=      5-min Rain = 0
KMC1 191640Z 31012KT 07/M04 A303 RMK A01 T00701035  RH  047%=      5-min Rain = 0
KMC1 191641Z 30013G20KT 07/M03 A303 RMK A01 T00721032  RH  048%=      5-min Rain = 0
KMC1 191642Z 32016G22KT 07/M03 A303 RMK A01 T00731033  RH  047%=      5-min Rain = 0
KMC1 191643Z 31020KT 07/M03 A3031 RMK A01 T00731033  RH  047%=      5-min Rain = 0
KMC1 191644Z 31019G24KT 07/M04 A3031 RMK A01 T00721038  RH  046%=      5-min Rain = 0
KMC1 191645Z 31019G24KT 07/M04 A3031 RMK A01 T00701038  RH  046%=      5-min Rain = 0
KMC1 191646Z 30016G21KT 07/M04 A3031 RMK A01 T00701037  RH  047%=      5-min Rain = 0
KMC1 191647Z 32016G21KT 07/M04 A3031 RMK A01 T00701035  RH  047%=      5-min Rain = 0
KMC1 191648Z 31013KT 07/M04 A3031 RMK A01 T00711036  RH  047%=      5-min Rain = 0
KMC1 191649Z 30014KT 07/M03 A3031 RMK A01 T00711034  RH  047%=      5-min Rain = 0
KMC1 191650Z 31012G18KT 07/M03 A3031 RMK A01 T00731033  RH  047%=      5-min Rain = 0
KMC1 191651Z 31017KT 07/M03 A3031 RMK A01 T00741034  RH  047%=      5-min Rain = 0
KMC1 191652Z 32013G20KT 07/M04 A3031 RMK A01 T00731035  RH  046%=      5-min Rain = 0
KMC1 191653Z 31010G15KT 07/M03 A3031 RMK A01 T00721034  RH  047%=      5-min Rain = 0
KMC1 191654Z 31015KT 07/M03 A3031 RMK A01 T00731033  RH  047%=      5-min Rain = 0
KMC1 191655Z 32015KT 07/M04 A3031 RMK A01 T00741035  RH  046%=      5-min Rain = 0
KMC1 191656Z 32015G20KT 07/M04 A3031 RMK A01 T00741038  RH  045%=      5-min Rain = 0
KMC1 191657Z 32012G17KT 07/M04 A3031 RMK A01 T00721037  RH  046%=      5-min Rain = 0
KMC1 191658Z 32014G20KT 07/M03 A3031 RMK A01 T00731034  RH  047%=      5-min Rain = 0
KMC1 191659Z 31017KT 07/M04 A3031 RMK A01 T00731035  RH  046%=      5-min Rain = 0
KMC1 191700Z 32016G22KT 07/M04 A3031 RMK A01 T00731037  RH  046%=      5-min Rain = 0
KMC1 191701Z 32016KT 07/M04 A3031 RMK A01 T00721038  RH  046%=      5-min Rain = 0
KMC1 191702Z 32013KT 07/M04 A3031 RMK A01 T00721036  RH  046%=      5-min Rain = 0
KMC1 191703Z 32015G21KT 07/M03 A3031 RMK A01 T00731034  RH  047%=      5-min Rain = 0
KMC1 191704Z 32015KT 07/M04 A3031 RMK A01 T00741035  RH  046%=      5-min Rain = 0
KMC1 191705Z 32014G21KT 08/M04 A3031 RMK A01 T00751036  RH  045%=      5-min Rain = 0
KMC1 191706Z 33017G23KT 07/M04 A3031 RMK A01 T00731039  RH  045%=      5-min Rain = 0
KMC1 191707Z 32014G19KT 07/M04 A3031 RMK A01 T00731037  RH  046%=      5-min Rain = 0
KMC1 191708Z 32017G23KT 07/M04 A3031 RMK A01 T00741036  RH  046%=      5-min Rain = 0
KMC1 191709Z 32015KT 07/M04 A3031 RMK A01 T00741037  RH  045%=      5-min Rain = 0
KMC1 191710Z 32017KT 07/M04 A3031 RMK A01 T00741037  RH  045%=      5-min Rain = 0
KMC1 191711Z 32014KT 07/M04 A3031 RMK A01 T00741036  RH  045%=      5-min Rain = 0
KMC1 191712Z 32018KT 07/M04 A3031 RMK A01 T00741036  RH  045%=      5-min Rain = 0
KMC1 191713Z 32015G21KT 08/M04 A3031 RMK A01 T00751036  RH  045%=      5-min Rain = 0
KMC1 191714Z 32015G20KT 08/M04 A3031 RMK A01 T00751037  RH  045%=      5-min Rain = 0
KMC1 191715Z 33011G18KT 07/M04 A3031 RMK A01 T00741037  RH  045%=      5-min Rain = 0
KMC1 191716Z 33013KT 08/M03 A3031 RMK A01 T00751034  RH  046%=      5-min Rain = 0
KMC1 191717Z 32013KT 08/M03 A3031 RMK A01 T00771033  RH  046%=      5-min Rain = 0
KMC1 191718Z 31015G22KT 08/M03 A3031 RMK A01 T00781032  RH  046%=      5-min Rain = 0
KMC1 191719Z 33015G20KT 08/M03 A3031 RMK A01 T00781033  RH  045%=      5-min Rain = 0
KMC1 191720Z 33020G26KT 08/M03 A3031 RMK A01 T00791032  RH  045%=      5-min Rain = 0
KMC1 191721Z 33017KT 08/M04 A3031 RMK A01 T00761035  RH  045%=      5-min Rain = 0
KMC1 191722Z 30016KT 08/M03 A3031 RMK A01 T00751034  RH  046%=      5-min Rain = 0
KMC1 191723Z 30020KT 08/M03 A3031 RMK A01 T00761033  RH  046%=      5-min Rain = 0
KMC1 191724Z 33015G20KT 08/M03 A3031 RMK A01 T00781032  RH  046%=      5-min Rain = 0
KMC1 191725Z 33013G20KT 08/M03 A3031 RMK A01 T00781034  RH  045%=      5-min Rain = 0
KMC1 191726Z 33013G19KT 08/M03 A3031 RMK A01 T00781033  RH  045%=      5-min Rain = 0
KMC1 191727Z 32013G18KT 08/M03 A3031 RMK A01 T00781033  RH  045%=      5-min Rain = 0
KMC1 191728Z 33015G20KT 08/M03 A3031 RMK A01 T00791033  RH  045%=      5-min Rain = 0
KMC1 191729Z 33014G21KT 08/M04 A3031 RMK A01 T00791035  RH  044%=      5-min Rain = 0
KMC1 191730Z 32016KT 08/M04 A3031 RMK A01 T00771037  RH  044%=      5-min Rain = 0
KMC1 191731Z 33016KT 08/M04 A3031 RMK A01 T00761036  RH  045%=      5-min Rain = 0
KMC1 191732Z 33016KT 08/M04 A3031 RMK A01 T00761035  RH  045%=      5-min Rain = 0
KMC1 191733Z 33013KT 08/M03 A3031 RMK A01 T00771034  RH  045%=      5-min Rain = 0
KMC1 191734Z 33016KT 08/M03 A3031 RMK A01 T00771034  RH  045%=      5-min Rain = 0
KMC1 191735Z 32013KT 08/M04 A303 RMK A01 T00781035  RH  045%=      5-min Rain = 0
KMC1 191736Z 32012KT 08/M03 A303 RMK A01 T00781031  RH  046%=      5-min Rain = 0
KMC1 191737Z 33009KT 08/M03 A303 RMK A01 T00811029  RH  046%=      5-min Rain = 0
KMC1 191738Z 32011KT 08/M03 A303 RMK A01 T00841029  RH  045%=      5-min Rain = 0
KMC1 191739Z 32012G18KT 08/M03 A303 RMK A01 T00841031  RH  044%=      5-min Rain = 0
KMC1 191740Z 32014G19KT 08/M03 A303 RMK A01 T00841032  RH  044%=      5-min Rain = 0
KMC1 191741Z 32012G17KT 08/M03 A303 RMK A01 T00821031  RH  044%=      5-min Rain = 0
KMC1 191742Z 32011KT 08/M03 A303 RMK A01 T00831031  RH  045%=      5-min Rain = 0
KMC1 191743Z 31011G16KT 08/M03 A303 RMK A01 T00831031  RH  044%=      5-min Rain = 0
KMC1 191744Z 31014KT 09/M03 A303 RMK A01 T00851029  RH  044%=      5-min Rain = 0
KMC1 191745Z 31013G19KT 09/M03 A303 RMK A01 T00861030  RH  044%=      5-min Rain = 0
KMC1 191746Z 32015KT 09/M03 A303 RMK A01 T00871031  RH  043%=      5-min Rain = 0
KMC1 191747Z 31013G18KT 09/M03 A303 RMK A01 T00861033  RH  043%=      5-min Rain = 0
KMC1 191748Z 32014G20KT 09/M03 A303 RMK A01 T00861031  RH  044%=      5-min Rain = 0
KMC1 191749Z 31010KT 09/M03 A303 RMK A01 T00871031  RH  043%=      5-min Rain = 0
KMC1 191750Z 31010G15KT 09/M03 A303 RMK A01 T00881030  RH  043%=      5-min Rain = 0
KMC1 191751Z 32016KT 09/M03 A303 RMK A01 T00881031  RH  043%=      5-min Rain = 0
KMC1 191752Z 31016G24KT 09/M03 A303 RMK A01 T00871032  RH  043%=      5-min Rain = 0
KMC1 191753Z 32015KT 09/M03 A303 RMK A01 T00871033  RH  043%=      5-min Rain = 0
KMC1 191754Z 32015KT 09/M03 A303 RMK A01 T00871032  RH  043%=      5-min Rain = 0
KMC1 191755Z 31015G20KT 09/M03 A303 RMK A01 T00871033  RH  043%=      5-min Rain = 0
KMC1 191756Z 32014KT 09/M03 A303 RMK A01 T00861033  RH  043%=      5-min Rain = 0
KMC1 191757Z 30011KT 09/M03 A303 RMK A01 T00881029  RH  044%=      5-min Rain = 0
KMC1 191758Z 31015G20KT 09/M03 A303 RMK A01 T00891027  RH  044%=      5-min Rain = 0
KMC1 191759Z 31014KT 09/M03 A303 RMK A01 T00911027  RH  043%=      5-min Rain = 0
KMC1 191800Z 30009KT 09/M03 A303 RMK A01 T00921026  RH  043%=      5-min Rain = 0
KMC1 191801Z 31010G15KT 09/M03 A303 RMK A01 T00941025  RH  043%=      5-min Rain = 0
KMC1 191802Z 32016KT 10/M03 A303 RMK A01 T00951027  RH  042%=      5-min Rain = 0
KMC1 191803Z 32013KT 09/M03 A303 RMK A01 T00941029  RH  042%=      5-min Rain = 0
KMC1 191804Z 33015KT 09/M03 A303 RMK A01 T00931030  RH  042%=      5-min Rain = 0
KMC1 191805Z 33014G19KT 09/M03 A303 RMK A01 T00901033  RH  042%=      5-min Rain = 0
KMC1 191806Z 32010KT 09/M03 A303 RMK A01 T00901029  RH  043%=      5-min Rain = 0
KMC1 191807Z 33010G17KT 09/M02 A303 RMK A01 T00931024  RH  044%=      5-min Rain = 0
KMC1 191808Z 33013KT 10/M03 A303 RMK A01 T00961026  RH  042%=      5-min Rain = 0
KMC1 191809Z 32014KT 10/M03 A303 RMK A01 T00951031  RH  041%=      5-min Rain = 0
KMC1 191810Z 31012KT 09/M03 A303 RMK A01 T00941030  RH  042%=      5-min Rain = 0
KMC1 191811Z 33012KT 09/M03 A303 RMK A01 T00941028  RH  042%=      5-min Rain = 0
KMC1 191812Z 34012G18KT 10/M03 A303 RMK A01 T00951028  RH  042%=      5-min Rain = 0
KMC1 191813Z 33013G20KT 09/M03 A303 RMK A01 T00941029  RH  042%=      5-min Rain = 0
KMC1 191814Z 32016KT 09/M03 A303 RMK A01 T00931032  RH  041%=      5-min Rain = 0
KMC1 191815Z 32011G16KT 09/M03 A303 RMK A01 T00921029  RH  042%=      5-min Rain = 0
KMC1 191816Z 32012KT 09/M03 A303 RMK A01 T00941028  RH  042%=      5-min Rain = 0
KMC1 191817Z 32008G13KT 10/M03 A303 RMK A01 T00951030  RH  042%=      5-min Rain = 0
KMC1 191818Z 33014KT 10/M03 A303 RMK A01 T00961026  RH  042%=      5-min Rain = 0
KMC1 191819Z 31016G21KT 10/M03 A303 RMK A01 T00971027  RH  041%=      5-min Rain = 0
KMC1 191820Z 31016KT 10/M03 A303 RMK A01 T00971031  RH  041%=      5-min Rain = 0
KMC1 191821Z 33015KT 09/M03 A303 RMK A01 T00941031  RH  041%=      5-min Rain = 0
KMC1 191822Z 31013G19KT 09/M03 A303 RMK A01 T00931029  RH  042%=      5-min Rain = 0
KMC1 191823Z 31015G23KT 09/M03 A303 RMK A01 T00941027  RH  043%=      5-min Rain = 0
KMC1 191824Z 32013KT 10/M03 A303 RMK A01 T00951028  RH  042%=      5-min Rain = 0
KMC1 191825Z 31012G17KT 10/M03 A303 RMK A01 T00961027  RH  042%=      5-min Rain = 0
KMC1 191826Z 32014G22KT 10/M03 A303 RMK A01 T00971027  RH  042%=      5-min Rain = 0
KMC1 191827Z 31012G18KT 10/M03 A303 RMK A01 T00971029  RH  041%=      5-min Rain = 0
KMC1 191828Z 34017G24KT 10/M03 A303 RMK A01 T00991026  RH  042%=      5-min Rain = 0
KMC1 191829Z 33016G24KT 10/M03 A3029 RMK A01 T00991030  RH  040%=      5-min Rain = 0
KMC1 191830Z 32017G23KT 10/M03 A3029 RMK A01 T00971030  RH  041%=      5-min Rain = 0
KMC1 191831Z 33017KT 10/M03 A3029 RMK A01 T00981033  RH  040%=      5-min Rain = 0
KMC1 191832Z 33016KT 10/M03 A3029 RMK A01 T00961034  RH  040%=      5-min Rain = 0
KMC1 191833Z 34014KT 09/M03 A3029 RMK A01 T00941034  RH  040%=      5-min Rain = 0
KMC1 191834Z 31013G18KT 10/M03 A3029 RMK A01 T00951030  RH  041%=      5-min Rain = 0
KMC1 191835Z 31010KT 10/M03 A3029 RMK A01 T00981026  RH  042%=      5-min Rain = 0
KMC1 191836Z 31013KT 10/M02 A3029 RMK A01 T01011024  RH  042%=      5-min Rain = 0
KMC1 191837Z 30014KT 10/M03 A3029 RMK A01 T01021025  RH  041%=      5-min Rain = 0
KMC1 191838Z 32012G20KT 10/M03 A3029 RMK A01 T01031025  RH  041%=      5-min Rain = 0
KMC1 191839Z 31011KT 10/M03 A3029 RMK A01 T01031027  RH  040%=      5-min Rain = 0
KMC1 191840Z 31012KT 10/M02 A3029 RMK A01 T01041022  RH  041%=      5-min Rain = 0
KMC1 191841Z 33010G17KT 11/M02 A3028 RMK A01 T01061022  RH  041%=      5-min Rain = 0
KMC1 191842Z 31012G17KT 11/M02 A3028 RMK A01 T01081021  RH  041%=      5-min Rain = 0
KMC1 191843Z 32017G23KT 11/M02 A3028 RMK A01 T01091024  RH  040%=      5-min Rain = 0
KMC1 191844Z 33012KT 11/M03 A3028 RMK A01 T01071029  RH  038%=      5-min Rain = 0
KMC1 191845Z 34012G18KT 10/M03 A3028 RMK A01 T01041030  RH  039%=      5-min Rain = 0
KMC1 191846Z 33012KT 10/M03 A3028 RMK A01 T01031028  RH  040%=      5-min Rain = 0
KMC1 191847Z 32011KT 10/M03 A3028 RMK A01 T01041028  RH  040%=      5-min Rain = 0
KMC1 191848Z 33012G20KT 10/M03 A3028 RMK A01 T01041026  RH  040%=      5-min Rain = 0
KMC1 191849Z 32013KT 11/M03 A3028 RMK A01 T01051027  RH  040%=      5-min Rain = 0
KMC1 191850Z 31013KT 11/M03 A3028 RMK A01 T01051026  RH  040%=      5-min Rain = 0
KMC1 191851Z 30013G22KT 11/M02 A3028 RMK A01 T01061024  RH  040%=      5-min Rain = 0
KMC1 191852Z 30017G22KT 11/M03 A3028 RMK A01 T01061026  RH  039%=      5-min Rain = 0
KMC1 191853Z 31019KT 11/M03 A3028 RMK A01 T01061029  RH  039%=      5-min Rain = 0
KMC1 191854Z 30016G21KT 11/M03 A3028 RMK A01 T01051029  RH  039%=      5-min Rain = 0
KMC1 191855Z 31019G27KT 11/M03 A3028 RMK A01 T01061028  RH  039%=      5-min Rain = 0
KMC1 191856Z 31015G21KT 11/M03 A3028 RMK A01 T01061027  RH  039%=      5-min Rain = 0
KMC1 191857Z 31015KT 11/M03 A3028 RMK A01 T01061028  RH  039%=      5-min Rain = 0
KMC1 191858Z 31019KT 11/M03 A3028 RMK A01 T01061027  RH  039%=      5-min Rain = 0
KMC1 191859Z 31019G25KT 11/M03 A3028 RMK A01 T01061029  RH  039%=      5-min Rain = 0
KMC1 191900Z 31017G22KT 11/M03 A3028 RMK A01 T01051029  RH  039%=      5-min Rain = 0
KMC1 191901Z 32017KT 10/M03 A3028 RMK A01 T01041030  RH  039%=      5-min Rain = 0
KMC1 191902Z 31014KT 10/M03 A3028 RMK A01 T01041029  RH  039%=      5-min Rain = 0
KMC1 191903Z 31016KT 11/M03 A3028 RMK A01 T01051025  RH  040%=      5-min Rain = 0
KMC1 191904Z 31016KT 11/M03 A3027 RMK A01 T01071026  RH  039%=      5-min Rain = 0
KMC1 191905Z 31014KT 11/M03 A3028 RMK A01 T01081027  RH  039%=      5-min Rain = 0
KMC1 191906Z 32011KT 11/M03 A3028 RMK A01 T01081025  RH  039%=      5-min Rain = 0
KMC1 191907Z 32015G21KT 11/M02 A3028 RMK A01 T01091024  RH  039%=      5-min Rain = 0
KMC1 191908Z 31018G24KT 11/M03 A3027 RMK A01 T01101028  RH  038%=      5-min Rain = 0
KMC1 191909Z 32018KT 11/M03 A3027 RMK A01 T01081030  RH  038%=      5-min Rain = 0
KMC1 191910Z 31015G20KT 11/M03 A3027 RMK A01 T01071033  RH  037%=      5-min Rain = 0
KMC1 191911Z 30011KT 11/M03 A3027 RMK A01 T01071029  RH  038%=      5-min Rain = 0
KMC1 191912Z 30009KT 11/M02 A3027 RMK A01 T01101022  RH  040%=      5-min Rain = 0
KMC1 191913Z 30013KT 12/M02 A3027 RMK A01 T01151018  RH  040%=      5-min Rain = 0
KMC1 191914Z 31010KT 12/M02 A3027 RMK A01 T01171019  RH  039%=      5-min Rain = 0
KMC1 191915Z 31012KT 12/M02 A3027 RMK A01 T01191020  RH  038%=      5-min Rain = 0
KMC1 191916Z 31016G21KT 12/M03 A3027 RMK A01 T01171025  RH  037%=      5-min Rain = 0
KMC1 191917Z 32013KT 11/M03 A3027 RMK A01 T01131028  RH  037%=      5-min Rain = 0
KMC1 191918Z 32012KT 11/M03 A3027 RMK A01 T01121026  RH  038%=      5-min Rain = 0
KMC1 191919Z 32014KT 11/M02 A3027 RMK A01 T01111024  RH  039%=      5-min Rain = 0
KMC1 191920Z 30008KT 11/M02 A3027 RMK A01 T01131021  RH  039%=      5-min Rain = 0
KMC1 191921Z 31013KT 12/M02 A3027 RMK A01 T01161019  RH  039%=      5-min Rain = 0
KMC1 191922Z 30014KT 12/M02 A3027 RMK A01 T01181020  RH  038%=      5-min Rain = 0
KMC1 191923Z 30014KT 12/M02 A3027 RMK A01 T01181022  RH  038%=      5-min Rain = 0
KMC1 191924Z 30011KT 12/M02 A3027 RMK A01 T01181022  RH  038%=      5-min Rain = 0
KMC1 191925Z 32013KT 12/M02 A3027 RMK A01 T01181021  RH  038%=      5-min Rain = 0
KMC1 191926Z 33011G16KT 12/M02 A3027 RMK A01 T01171024  RH  037%=      5-min Rain = 0
KMC1 191927Z 32011G17KT 12/M02 A3026 RMK A01 T01161024  RH  038%=      5-min Rain = 0
KMC1 191928Z 33013G18KT 12/M03 A3026 RMK A01 T01161027  RH  037%=      5-min Rain = 0
KMC1 191929Z 32009KT 11/M03 A3026 RMK A01 T01141026  RH  038%=      5-min Rain = 0
KMC1 191930Z 31011KT 12/M02 A3026 RMK A01 T01161021  RH  038%=      5-min Rain = 0
KMC1 191931Z 31015KT 12/M02 A3026 RMK A01 T01181020  RH  038%=      5-min Rain = 0
KMC1 191932Z 31016G23KT 12/M02 A3026 RMK A01 T01181023  RH  037%=      5-min Rain = 0
KMC1 191933Z 33016KT 12/M03 A3026 RMK A01 T01181026  RH  037%=      5-min Rain = 0
KMC1 191934Z 32012KT 11/M03 A3026 RMK A01 T01141030  RH  036%=      5-min Rain = 0
KMC1 191935Z 31008G13KT 11/M02 A3026 RMK A01 T01131024  RH  038%=      5-min Rain = 0
KMC1 191936Z 31014G21KT 12/M02 A3026 RMK A01 T01171020  RH  039%=      5-min Rain = 0
KMC1 191937Z 31014KT 12/M02 A3026 RMK A01 T01181023  RH  037%=      5-min Rain = 0
KMC1 191938Z 31016G22KT 12/M02 A3026 RMK A01 T01181024  RH  037%=      5-min Rain = 0
KMC1 191939Z 31014KT 12/M03 A3026 RMK A01 T01181026  RH  036%=      5-min Rain = 0
KMC1 191940Z 31016KT 12/M03 A3026 RMK A01 T01171027  RH  036%=      5-min Rain = 0
KMC1 191941Z 31016G22KT 12/M03 A3026 RMK A01 T01171028  RH  036%=      5-min Rain = 0
KMC1 191942Z 32012KT 12/M03 A3026 RMK A01 T01171027  RH  036%=      5-min Rain = 0
KMC1 191943Z 33011KT 12/M03 A3026 RMK A01 T01171027  RH  037%=      5-min Rain = 0
KMC1 191944Z 32013G18KT 12/M02 A3025 RMK A01 T01191022  RH  037%=      5-min Rain = 0
KMC1 191945Z 32014KT 12/M02 A3026 RMK A01 T01211024  RH  036%=      5-min Rain = 0
KMC1 191946Z 32010G15KT 12/M03 A3025 RMK A01 T01211025  RH  036%=      5-min Rain = 0
KMC1 191947Z 33016KT 12/M02 A3026 RMK A01 T01221022  RH  037%=      5-min Rain = 0
KMC1 191948Z 32013KT 12/M03 A3025 RMK A01 T01221026  RH  035%=      5-min Rain = 0
KMC1 191949Z 32014KT 12/M02 A3025 RMK A01 T01211024  RH  036%=      5-min Rain = 0
KMC1 191950Z 32016KT 12/M03 A3025 RMK A01 T01211027  RH  036%=      5-min Rain = 0
KMC1 191951Z 32013G18KT 12/M03 A3025 RMK A01 T01191028  RH  036%=      5-min Rain = 0
KMC1 191952Z 31013KT 12/M03 A3025 RMK A01 T01191027  RH  036%=      5-min Rain = 0
KMC1 191953Z 34010KT 12/M03 A3025 RMK A01 T01191025  RH  036%=      5-min Rain = 0
KMC1 191954Z 33012G18KT 12/M02 A3025 RMK A01 T01201022  RH  037%=      5-min Rain = 0
KMC1 191955Z 33012G17KT 12/M02 A3025 RMK A01 T01221022  RH  037%=      5-min Rain = 0
KMC1 191956Z 33016KT 12/M03 A3024 RMK A01 T01221026  RH  036%=      5-min Rain = 0
KMC1 191957Z 33017G22KT 12/M03 A3024 RMK A01 T01201027  RH  036%=      5-min Rain = 0
KMC1 191958Z 32015G20KT 12/M03 A3024 RMK A01 T01191028  RH  036%=      5-min Rain = 0
KMC1 191959Z 32019G24KT 12/M03 A3024 RMK A01 T01191027  RH  036%=      5-min Rain = 0
KMC1 192000Z 32017KT 12/M03 A3024 RMK A01 T01181029  RH  036%=      5-min Rain = 0
KMC1 192001Z 32016KT 12/M03 A3024 RMK A01 T01181029  RH  036%=      5-min Rain = 0
KMC1 192002Z 32015G21KT 12/M03 A3024 RMK A01 T01171029  RH  036%=      5-min Rain = 0
KMC1 192003Z 32015G20KT 12/M03 A3024 RMK A01 T01181026  RH  036%=      5-min Rain = 0
KMC1 192004Z 33015G21KT 12/M03 A3024 RMK A01 T01201027  RH  036%=      5-min Rain = 0
KMC1 192005Z 33015G22KT 12/M03 A3024 RMK A01 T01191028  RH  036%=      5-min Rain = 0
KMC1 192006Z 33013G19KT 12/M03 A3024 RMK A01 T01181028  RH  036%=      5-min Rain = 0
KMC1 192007Z 32015G22KT 12/M03 A3024 RMK A01 T01191028  RH  036%=      5-min Rain = 0
KMC1 192008Z 32014G20KT 12/M02 A3024 RMK A01 T01191024  RH  037%=      5-min Rain = 0
KMC1 192009Z 31018G25KT 12/M03 A3024 RMK A01 T01211027  RH  036%=      5-min Rain = 0
KMC1 192010Z 31016G23KT 12/M03 A3024 RMK A01 T01211027  RH  035%=      5-min Rain = 0
KMC1 192011Z 33019G24KT 12/M03 A3024 RMK A01 T01211028  RH  035%=      5-min Rain = 0
KMC1 192012Z 32017G22KT 12/M03 A3024 RMK A01 T01191030  RH  035%=      5-min Rain = 0
KMC1 192013Z 33017KT 12/M03 A3024 RMK A01 T01191029  RH  036%=      5-min Rain = 0
KMC1 192014Z 33016G23KT 12/M03 A3024 RMK A01 T01191031  RH  035%=      5-min Rain = 0
KMC1 192015Z 32014G19KT 12/M03 A3024 RMK A01 T01181030  RH  035%=      5-min Rain = 0
KMC1 192016Z 32014G21KT 12/M03 A3024 RMK A01 T01181028  RH  036%=      5-min Rain = 0
KMC1 192017Z 33014G21KT 12/M03 A3024 RMK A01 T01201026  RH  036%=      5-min Rain = 0
KMC1 192018Z 31016G23KT 12/M02 A3024 RMK A01 T01211024  RH  036%=      5-min Rain = 0
KMC1 192019Z 31014KT 12/M03 A3024 RMK A01 T01241025  RH  035%=      5-min Rain = 0
KMC1 192020Z 32019G24KT 13/M03 A3024 RMK A01 T01251026  RH  035%=      5-min Rain = 0
KMC1 192021Z 32019G24KT 12/M03 A3024 RMK A01 T01241031  RH  034%=      5-min Rain = 0
KMC1 192022Z 32017G24KT 12/M03 A3024 RMK A01 T01211032  RH  034%=      5-min Rain = 0
KMC1 192023Z 33021G29KT 12/M03 A3024 RMK A01 T01211032  RH  034%=      5-min Rain = 0
KMC1 192024Z 32015KT 12/M03 A3024 RMK A01 T01191033  RH  034%=      5-min Rain = 0
KMC1 192025Z 34015G21KT 12/M03 A3024 RMK A01 T01211029  RH  035%=      5-min Rain = 0
KMC1 192026Z 34014G25KT 12/M03 A3024 RMK A01 T01221030  RH  034%=      5-min Rain = 0
KMC1 192027Z 34017KT 12/M03 A3024 RMK A01 T01231030  RH  034%=      5-min Rain = 0
KMC1 192028Z 34014G19KT 12/M03 A3024 RMK A01 T01231029  RH  034%=      5-min Rain = 0
KMC1 192029Z 34019G25KT 12/M03 A3024 RMK A01 T01241031  RH  034%=      5-min Rain = 0
KMC1 192030Z 34017G22KT 12/M03 A3024 RMK A01 T01231030  RH  034%=      5-min Rain = 0
KMC1 192031Z 35015G21KT 12/M03 A3024 RMK A01 T01241027  RH  035%=      5-min Rain = 0
KMC1 192032Z 34017KT 13/M03 A3024 RMK A01 T01251026  RH  035%=      5-min Rain = 0
KMC1 192033Z 33014G19KT 13/M03 A3024 RMK A01 T01251028  RH  034%=      5-min Rain = 0
KMC1 192034Z 33015KT 13/M03 A3024 RMK A01 T01251026  RH  035%=      5-min Rain = 0
KMC1 192035Z 34018G25KT 13/M03 A3024 RMK A01 T01251027  RH  035%=      5-min Rain = 0
KMC1 192036Z 32013G19KT 13/M03 A3024 RMK A01 T01251026  RH  035%=      5-min Rain = 0
KMC1 192037Z 31018G23KT 13/M03 A3024 RMK A01 T01251025  RH  035%=      5-min Rain = 0
KMC1 192038Z 32016G25KT 13/M03 A3024 RMK A01 T01251027  RH  034%=      5-min Rain = 0
KMC1 192039Z 32020KT 12/M03 A3024 RMK A01 T01241029  RH  034%=      5-min Rain = 0
KMC1 192040Z 31017G22KT 12/M03 A3024 RMK A01 T01221029  RH  035%=      5-min Rain = 0
KMC1 192041Z 30017G22KT 12/M03 A3024 RMK A01 T01231027  RH  035%=      5-min Rain = 0
KMC1 192042Z 31013G20KT 13/M03 A3024 RMK A01 T01251025  RH  035%=      5-min Rain = 0
KMC1 192043Z 32014KT 13/M03 A3024 RMK A01 T01271025  RH  035%=      5-min Rain = 0
KMC1 192044Z 31018G25KT 13/M03 A3024 RMK A01 T01271026  RH  035%=      5-min Rain = 0
KMC1 192045Z 31014KT 13/M03 A3024 RMK A01 T01261027  RH  034%=      5-min Rain = 0
KMC1 192046Z 32019G25KT 13/M03 A3024 RMK A01 T01251028  RH  034%=      5-min Rain = 0
KMC1 192047Z 31020KT 12/M03 A3024 RMK A01 T01241030  RH  034%=      5-min Rain = 0
KMC1 192048Z 32017G22KT 13/M03 A3024 RMK A01 T01251028  RH  034%=      5-min Rain = 0
KMC1 192049Z 32017G22KT 13/M03 A3024 RMK A01 T01261029  RH  034%=      5-min Rain = 0
KMC1 192050Z 32018G26KT 13/M03 A3024 RMK A01 T01251030  RH  034%=      5-min Rain = 0
KMC1 192051Z 32017G23KT 13/M03 A3024 RMK A01 T01251031  RH  034%=      5-min Rain = 0
KMC1 192052Z 33019G25KT 12/M03 A3024 RMK A01 T01241031  RH  034%=      5-min Rain = 0
KMC1 192053Z 33018G25KT 12/M03 A3024 RMK A01 T01241031  RH  034%=      5-min Rain = 0
KMC1 192054Z 31018KT 12/M03 A3024 RMK A01 T01241029  RH  034%=      5-min Rain = 0
KMC1 192055Z 33019G26KT 13/M03 A3024 RMK A01 T01251029  RH  034%=      5-min Rain = 0
KMC1 192056Z 33018G24KT 13/M03 A3024 RMK A01 T01251031  RH  034%=      5-min Rain = 0
KMC1 192057Z 33016KT 12/M03 A3024 RMK A01 T01241030  RH  034%=      5-min Rain = 0
KMC1 192058Z 33019G25KT 13/M03 A3024 RMK A01 T01251029  RH  034%=      5-min Rain = 0
KMC1 192059Z 32016G22KT 13/M03 A3024 RMK A01 T01251030  RH  034%=      5-min Rain = 0
KMC1 192100Z 33018G25KT 12/M03 A3024 RMK A01 T01241029  RH  034%=      5-min Rain = 0
KMC1 192101Z 33015G25KT 12/M03 A3024 RMK A01 T01241029  RH  034%=      5-min Rain = 0
KMC1 192102Z 33016G23KT 13/M03 A3024 RMK A01 T01251030  RH  034%=      5-min Rain = 0
KMC1 192103Z 33019G24KT 13/M03 A3024 RMK A01 T01251030  RH  034%=      5-min Rain = 0
KMC1 192104Z 33015KT 12/M03 A3024 RMK A01 T01241029  RH  034%=      5-min Rain = 0
KMC1 192105Z 33017G24KT 13/M03 A3024 RMK A01 T01251029  RH  034%=      5-min Rain = 0
KMC1 192106Z 34015G20KT 13/M03 A3024 RMK A01 T01261027  RH  034%=      5-min Rain = 0
KMC1 192107Z 33016G23KT 13/M03 A3024 RMK A01 T01271029  RH  034%=      5-min Rain = 0
KMC1 192108Z 32012G18KT 13/M03 A3024 RMK A01 T01261027  RH  034%=      5-min Rain = 0
KMC1 192109Z 31018G23KT 13/M03 A3024 RMK A01 T01281027  RH  034%=      5-min Rain = 0
KMC1 192110Z 33018G24KT 13/M03 A3024 RMK A01 T01281029  RH  033%=      5-min Rain = 0
KMC1 192111Z 33018G26KT 13/M03 A3024 RMK A01 T01281029  RH  033%=      5-min Rain = 0
KMC1 192112Z 33019G25KT 13/M03 A3024 RMK A01 T01281030  RH  033%=      5-min Rain = 0
KMC1 192113Z 33021G28KT 13/M03 A3024 RMK A01 T01271031  RH  033%=      5-min Rain = 0
KMC1 192114Z 33015G21KT 13/M03 A3024 RMK A01 T01261031  RH  033%=      5-min Rain = 0
KMC1 192115Z 32014G21KT 13/M03 A3024 RMK A01 T01261029  RH  034%=      5-min Rain = 0
KMC1 192116Z 33016G21KT 13/M03 A3024 RMK A01 T01281027  RH  034%=      5-min Rain = 0
KMC1 192117Z 34018G23KT 13/M03 A3024 RMK A01 T01281031  RH  033%=      5-min Rain = 0
KMC1 192118Z 33018KT 13/M03 A3024 RMK A01 T01271031  RH  033%=      5-min Rain = 0
KMC1 192119Z 33018G23KT 13/M03 A3024 RMK A01 T01271031  RH  033%=      5-min Rain = 0
KMC1 192120Z 33017KT 13/M03 A3024 RMK A01 T01261031  RH  033%=      5-min Rain = 0
KMC1 192121Z 33014G19KT 13/M03 A3024 RMK A01 T01261029  RH  034%=      5-min Rain = 0
KMC1 192122Z 32016KT 13/M03 A3024 RMK A01 T01271029  RH  034%=      5-min Rain = 0
KMC1 192123Z 32015G21KT 13/M03 A3024 RMK A01 T01271028  RH  034%=      5-min Rain = 0
KMC1 192124Z 33015G20KT 13/M03 A3024 RMK A01 T01281028  RH  034%=      5-min Rain = 0
KMC1 192125Z 33016KT 13/M03 A3024 RMK A01 T01281029  RH  034%=      5-min Rain = 0
KMC1 192126Z 33013KT 13/M03 A3024 RMK A01 T01281027  RH  034%=      5-min Rain = 0
KMC1 192127Z 31015G20KT 13/M03 A3024 RMK A01 T01281026  RH  034%=      5-min Rain = 0
KMC1 192128Z 32012KT 13/M02 A3024 RMK A01 T01301023  RH  035%=      5-min Rain = 0
KMC1 192129Z 31013G20KT 13/M02 A3024 RMK A01 T01321023  RH  034%=      5-min Rain = 0
KMC1 192130Z 31013G21KT 13/M02 A3024 RMK A01 T01331021  RH  034%=      5-min Rain = 0
KMC1 192131Z 31015G20KT 14/M02 A3024 RMK A01 T01351023  RH  033%=      5-min Rain = 0
KMC1 192132Z 31015G23KT 13/M02 A3024 RMK A01 T01341024  RH  033%=      5-min Rain = 0
KMC1 192133Z 32014G21KT 13/M02 A3024 RMK A01 T01341022  RH  034%=      5-min Rain = 0
KMC1 192134Z 31016G22KT 13/M02 A3024 RMK A01 T01341024  RH  033%=      5-min Rain = 0
KMC1 192135Z 30019KT 13/M03 A3024 RMK A01 T01331028  RH  033%=      5-min Rain = 0
KMC1 192136Z 31018G25KT 13/M03 A3024 RMK A01 T01321028  RH  033%=      5-min Rain = 0
KMC1 192137Z 31020G27KT 13/M03 A3024 RMK A01 T01311028  RH  033%=      5-min Rain = 0
KMC1 192138Z 31015G21KT 13/M03 A3024 RMK A01 T01311027  RH  033%=      5-min Rain = 0
KMC1 192139Z 31017G26KT 13/M03 A3024 RMK A01 T01301026  RH  034%=      5-min Rain = 0
KMC1 192140Z 33016G22KT 13/M03 A3024 RMK A01 T01311026  RH  033%=      5-min Rain = 0
KMC1 192141Z 33019G26KT 13/M03 A3024 RMK A01 T01311028  RH  033%=      5-min Rain = 0
KMC1 192142Z 32019G26KT 13/M03 A3024 RMK A01 T01291030  RH  033%=      5-min Rain = 0
KMC1 192143Z 33018G23KT 13/M03 A3024 RMK A01 T01281030  RH  033%=      5-min Rain = 0
KMC1 192144Z 33015G20KT 13/M03 A3024 RMK A01 T01271029  RH  034%=      5-min Rain = 0
KMC1 192145Z 32015KT 13/M03 A3024 RMK A01 T01271027  RH  034%=      5-min Rain = 0
KMC1 192146Z 33015G20KT 13/M03 A3024 RMK A01 T01271028  RH  034%=      5-min Rain = 0
KMC1 192147Z 34013KT 13/M03 A3024 RMK A01 T01271026  RH  034%=      5-min Rain = 0
KMC1 192148Z 31014KT 13/M03 A3024 RMK A01 T01281027  RH  034%=      5-min Rain = 0
KMC1 192149Z 32011G17KT 13/M03 A3024 RMK A01 T01281025  RH  034%=      5-min Rain = 0
KMC1 192150Z 34014G19KT 13/M02 A3024 RMK A01 T01291024  RH  034%=      5-min Rain = 0
KMC1 192151Z 33013KT 13/M03 A3024 RMK A01 T01291026  RH  034%=      5-min Rain = 0
KMC1 192152Z 33013KT 13/M03 A3024 RMK A01 T01291026  RH  034%=      5-min Rain = 0
KMC1 192153Z 32010G21KT 13/M02 A3024 RMK A01 T01291023  RH  035%=      5-min Rain = 0
KMC1 192154Z 31019G26KT 13/M02 A3023 RMK A01 T01301024  RH  034%=      5-min Rain = 0
KMC1 192155Z 32022G30KT 13/M03 A3024 RMK A01 T01311026  RH  033%=      5-min Rain = 0
KMC1 192156Z 33019G26KT 13/M03 A3023 RMK A01 T01301029  RH  033%=      5-min Rain = 0
KMC1 192157Z 32021G28KT 13/M03 A3023 RMK A01 T01281030  RH  033%=      5-min Rain = 0
KMC1 192158Z 32022G27KT 13/M03 A3023 RMK A01 T01281032  RH  033%=      5-min Rain = 0
KMC1 192159Z 32017G26KT 13/M03 A3024 RMK A01 T01281031  RH  033%=      5-min Rain = 0
KMC1 192200Z 31021G27KT 13/M03 A3024 RMK A01 T01281030  RH  033%=      5-min Rain = 0
KMC1 192201Z 32019G24KT 13/M03 A3024 RMK A01 T01281030  RH  033%=      5-min Rain = 0
KMC1 192202Z 32016G24KT 13/M03 A3024 RMK A01 T01281030  RH  033%=      5-min Rain = 0
KMC1 192203Z 32017G25KT 13/M03 A3024 RMK A01 T01271029  RH  034%=      5-min Rain = 0
KMC1 192204Z 31016G21KT 13/M03 A3023 RMK A01 T01271029  RH  034%=      5-min Rain = 0
KMC1 192205Z 32019G24KT 13/M03 A3023 RMK A01 T01281029  RH  033%=      5-min Rain = 0
KMC1 192206Z 32017G24KT 13/M03 A3024 RMK A01 T01281030  RH  033%=      5-min Rain = 0
KMC1 192207Z 32018KT 13/M03 A3023 RMK A01 T01281030  RH  033%=      5-min Rain = 0
KMC1 192208Z 32016G21KT 13/M03 A3023 RMK A01 T01271030  RH  033%=      5-min Rain = 0
KMC1 192209Z 32017G25KT 13/M03 A3024 RMK A01 T01271030  RH  033%=      5-min Rain = 0
KMC1 192210Z 32013G19KT 13/M03 A3024 RMK A01 T01281028  RH  034%=      5-min Rain = 0
KMC1 192211Z 33014KT 13/M03 A3023 RMK A01 T01281028  RH  034%=      5-min Rain = 0
KMC1 192212Z 33016G21KT 13/M03 A3024 RMK A01 T01271029  RH  034%=      5-min Rain = 0
KMC1 192213Z 33014KT 13/M03 A3024 RMK A01 T01261029  RH  034%=      5-min Rain = 0
KMC1 192214Z 33013KT 13/M03 A3024 RMK A01 T01261027  RH  034%=      5-min Rain = 0
KMC1 192215Z 33013KT 13/M03 A3024 RMK A01 T01261027  RH  034%=      5-min Rain = 0
KMC1 192216Z 32014G21KT 13/M03 A3024 RMK A01 T01261026  RH  034%=      5-min Rain = 0
KMC1 192217Z 33010G16KT 13/M03 A3024 RMK A01 T01261026  RH  035%=      5-min Rain = 0
KMC1 192218Z 33013KT 13/M02 A3024 RMK A01 T01271024  RH  035%=      5-min Rain = 0
KMC1 192219Z 34012G18KT 13/M03 A3024 RMK A01 T01271025  RH  035%=      5-min Rain = 0
KMC1 192220Z 34014KT 13/M03 A3024 RMK A01 T01271026  RH  035%=      5-min Rain = 0
KMC1 192221Z 33014G19KT 13/M03 A3024 RMK A01 T01261027  RH  034%=      5-min Rain = 0
KMC1 192222Z 33012KT 13/M03 A3024 RMK A01 T01251027  RH  035%=      5-min Rain = 0
KMC1 192223Z 32010KT 13/M03 A3024 RMK A01 T01261025  RH  035%=      5-min Rain = 0
KMC1 192224Z 32012G21KT 13/M02 A3024 RMK A01 T01271022  RH  035%=      5-min Rain = 0
KMC1 192225Z 32012G22KT 13/M02 A3024 RMK A01 T01281024  RH  035%=      5-min Rain = 0
KMC1 192226Z 33009G17KT 13/M02 A3024 RMK A01 T01291022  RH  035%=      5-min Rain = 0
KMC1 192227Z 33014KT 13/M02 A3024 RMK A01 T01291024  RH  034%=      5-min Rain = 0
KMC1 192228Z 34015KT 13/M03 A3024 RMK A01 T01281027  RH  034%=      5-min Rain = 0
KMC1 192229Z 34013KT 13/M03 A3024 RMK A01 T01271025  RH  035%=      5-min Rain = 0
KMC1 192230Z 33014KT 13/M03 A3024 RMK A01 T01271025  RH  035%=      5-min Rain = 0
KMC1 192231Z 33013KT 13/M03 A3024 RMK A01 T01261026  RH  035%=      5-min Rain = 0
KMC1 192232Z 33012KT 13/M03 A3024 RMK A01 T01261025  RH  035%=      5-min Rain = 0
KMC1 192233Z 35015G20KT 13/M02 A3024 RMK A01 T01261023  RH  035%=      5-min Rain = 0
KMC1 192234Z 32015KT 13/M02 A3024 RMK A01 T01261024  RH  035%=      5-min Rain = 0
KMC1 192235Z 34014KT 13/M02 A3024 RMK A01 T01261024  RH  035%=      5-min Rain = 0
KMC1 192236Z 32017KT 13/M03 A3024 RMK A01 T01261025  RH  035%=      5-min Rain = 0
KMC1 192237Z 33016G21KT 13/M03 A3024 RMK A01 T01251026  RH  035%=      5-min Rain = 0
KMC1 192238Z 33012G18KT 13/M03 A3024 RMK A01 T01251025  RH  035%=      5-min Rain = 0
KMC1 192239Z 32012KT 13/M03 A3024 RMK A01 T01251025  RH  035%=      5-min Rain = 0
KMC1 192240Z 33012KT 13/M03 A3024 RMK A01 T01251025  RH  035%=      5-min Rain = 0
KMC1 192241Z 32008G13KT 13/M02 A3024 RMK A01 T01261023  RH  035%=      5-min Rain = 0
KMC1 192242Z 32011G17KT 13/M02 A3024 RMK A01 T01271023  RH  035%=      5-min Rain = 0
KMC1 192243Z 31013KT 13/M02 A3024 RMK A01 T01271023  RH  035%=      5-min Rain = 0
KMC1 192244Z 32018G26KT 13/M03 A3024 RMK A01 T01271025  RH  035%=      5-min Rain = 0
KMC1 192245Z 33015G22KT 13/M03 A3024 RMK A01 T01261028  RH  034%=      5-min Rain = 0
KMC1 192246Z 32016G22KT 13/M03 A3024 RMK A01 T01251027  RH  035%=      5-min Rain = 0
KMC1 192247Z 32014KT 12/M03 A3024 RMK A01 T01241027  RH  035%=      5-min Rain = 0
KMC1 192248Z 32013G18KT 12/M03 A3024 RMK A01 T01241027  RH  035%=      5-min Rain = 0
KMC1 192249Z 33015KT 12/M03 A3024 RMK A01 T01241027  RH  035%=      5-min Rain = 0
KMC1 192250Z 31013G18KT 12/M03 A3024 RMK A01 T01231026  RH  035%=      5-min Rain = 0
KMC1 192251Z 33013KT 12/M03 A3024 RMK A01 T01231025  RH  036%=      5-min Rain = 0
KMC1 192252Z 32017KT 12/M03 A3024 RMK A01 T01231027  RH  035%=      5-min Rain = 0
KMC1 192253Z 32011KT 12/M03 A3024 RMK A01 T01231027  RH  035%=      5-min Rain = 0
KMC1 192254Z 32015G21KT 12/M03 A3024 RMK A01 T01231025  RH  036%=      5-min Rain = 0
KMC1 192255Z 32016KT 12/M03 A3024 RMK A01 T01231026  RH  035%=      5-min Rain = 0
KMC1 192256Z 31014G21KT 12/M03 A3024 RMK A01 T01231026  RH  035%=      5-min Rain = 0
KMC1 192257Z 31016G21KT 12/M03 A3024 RMK A01 T01231025  RH  035%=      5-min Rain = 0
KMC1 192258Z 31011KT 12/M03 A3024 RMK A01 T01231025  RH  035%=      5-min Rain = 0
KMC1 192259Z 31012KT 12/M02 A3024 RMK A01 T01241024  RH  036%=      5-min Rain = 0
KMC1 192300Z 32014KT 12/M03 A3025 RMK A01 T01241025  RH  035%=      5-min Rain = 0
KMC1 192301Z 31013KT 12/M03 A3025 RMK A01 T01241025  RH  035%=      5-min Rain = 0
KMC1 192302Z 32011KT 12/M02 A3025 RMK A01 T01231024  RH  036%=      5-min Rain = 0
KMC1 192303Z 32014G19KT 12/M02 A3025 RMK A01 T01231023  RH  036%=      5-min Rain = 0
KMC1 192304Z 32013KT 12/M03 A3025 RMK A01 T01231025  RH  036%=      5-min Rain = 0
KMC1 192305Z 33014KT 12/M03 A3025 RMK A01 T01221026  RH  036%=      5-min Rain = 0
KMC1 192306Z 33011KT 12/M03 A3025 RMK A01 T01221026  RH  036%=      5-min Rain = 0
KMC1 192307Z 32009G14KT 12/M02 A3025 RMK A01 T01221023  RH  037%=      5-min Rain = 0
KMC1 192308Z 32006G11KT 12/M02 A3025 RMK A01 T01221022  RH  037%=      5-min Rain = 0
KMC1 192309Z 31012KT 12/M02 A3025 RMK A01 T01221023  RH  036%=      5-min Rain = 0
KMC1 192310Z 32010KT 12/M02 A3025 RMK A01 T01221021  RH  037%=      5-min Rain = 0
KMC1 192311Z 34009KT 12/M02 A3025 RMK A01 T01221022  RH  037%=      5-min Rain = 0
KMC1 192312Z 32012G18KT 12/M02 A3025 RMK A01 T01221022  RH  036%=      5-min Rain = 0
KMC1 192313Z 33012G17KT 12/M02 A3025 RMK A01 T01221024  RH  036%=      5-min Rain = 0
KMC1 192314Z 33009KT 12/M02 A3025 RMK A01 T01211023  RH  037%=      5-min Rain = 0
KMC1 192315Z 32010KT 12/M02 A3025 RMK A01 T01211023  RH  037%=      5-min Rain = 0
KMC1 192316Z 33011KT 12/M02 A3025 RMK A01 T01211023  RH  037%=      5-min Rain = 0
KMC1 192317Z 32007KT 12/M02 A3025 RMK A01 T01201023  RH  037%=      5-min Rain = 0
KMC1 192318Z 33009KT 12/M02 A3025 RMK A01 T01201022  RH  037%=      5-min Rain = 0
KMC1 192319Z 32006KT 12/M02 A3025 RMK A01 T01201021  RH  037%=      5-min Rain = 0
KMC1 192320Z 32011KT 12/M02 A3025 RMK A01 T01201021  RH  037%=      5-min Rain = 0
KMC1 192321Z 34010KT 12/M02 A3025 RMK A01 T01201023  RH  037%=      5-min Rain = 0
KMC1 192322Z 34008KT 12/M02 A3025 RMK A01 T01201022  RH  037%=      5-min Rain = 0
KMC1 192323Z 34010KT 12/M02 A3025 RMK A01 T01191022  RH  037%=      5-min Rain = 0
KMC1 192324Z 34009KT 12/M02 A3025 RMK A01 T01181022  RH  038%=      5-min Rain = 0
KMC1 192325Z 32009KT 12/M02 A3026 RMK A01 T01181022  RH  038%=      5-min Rain = 0
KMC1 192326Z 33010KT 12/M02 A3026 RMK A01 T01181023  RH  038%=      5-min Rain = 0
KMC1 192327Z 31011KT 12/M02 A3025 RMK A01 T01171022  RH  038%=      5-min Rain = 0
KMC1 192328Z 31011KT 12/M02 A3026 RMK A01 T01181022  RH  038%=      5-min Rain = 0
KMC1 192329Z 32010KT 12/M02 A3026 RMK A01 T01181023  RH  037%=      5-min Rain = 0
KMC1 192330Z 32009KT 12/M02 A3026 RMK A01 T01181022  RH  038%=      5-min Rain = 0
KMC1 192331Z 32011KT 12/M02 A3026 RMK A01 T01181022  RH  038%=      5-min Rain = 0
KMC1 192332Z 32012KT 12/M02 A3026 RMK A01 T01171023  RH  037%=      5-min Rain = 0
KMC1 192333Z 31012KT 12/M02 A3026 RMK A01 T01171023  RH  037%=      5-min Rain = 0
KMC1 192334Z 32011KT 12/M02 A3026 RMK A01 T01171023  RH  038%=      5-min Rain = 0
KMC1 192335Z 32012KT 12/M02 A3026 RMK A01 T01171023  RH  038%=      5-min Rain = 0
KMC1 192336Z 31010KT 12/M02 A3026 RMK A01 T01171023  RH  038%=      5-min Rain = 0
KMC1 192337Z 31008KT 12/M02 A3026 RMK A01 T01161023  RH  038%=      5-min Rain = 0
KMC1 192338Z 31006KT 12/M02 A3026 RMK A01 T01161023  RH  038%=      5-min Rain = 0
KMC1 192339Z 32006KT 12/M02 A3026 RMK A01 T01151022  RH  038%=      5-min Rain = 0
KMC1 192340Z 33007KT 12/M02 A3026 RMK A01 T01151022  RH  038%=      5-min Rain = 0
KMC1 192341Z 32010KT 11/M02 A3026 RMK A01 T01141022  RH  038%=      5-min Rain = 0
KMC1 192342Z 32007KT 11/M02 A3026 RMK A01 T01141022  RH  039%=      5-min Rain = 0
KMC1 192343Z 34012KT 11/M02 A3026 RMK A01 T01141022  RH  039%=      5-min Rain = 0
KMC1 192344Z 33011KT 11/M02 A3026 RMK A01 T01131022  RH  039%=      5-min Rain = 0
KMC1 192345Z 33011KT 11/M02 A3026 RMK A01 T01131023  RH  039%=      5-min Rain = 0
KMC1 192346Z 32012KT 11/M02 A3026 RMK A01 T01121024  RH  038%=      5-min Rain = 0
KMC1 192347Z 33011KT 11/M02 A3026 RMK A01 T01121024  RH  039%=      5-min Rain = 0
KMC1 192348Z 32009KT 11/M02 A3026 RMK A01 T01121022  RH  039%=      5-min Rain = 0
KMC1 192349Z 32009KT 11/M02 A3026 RMK A01 T01111023  RH  039%=      5-min Rain = 0
KMC1 192350Z 33009KT 11/M02 A3026 RMK A01 T01111023  RH  039%=      5-min Rain = 0
KMC1 192351Z 32009KT 11/M02 A3026 RMK A01 T01101024  RH  039%=      5-min Rain = 0
KMC1 192352Z 33011KT 11/M02 A3026 RMK A01 T01101024  RH  039%=      5-min Rain = 0
KMC1 192353Z 32012KT 11/M02 A3026 RMK A01 T01101024  RH  039%=      5-min Rain = 0
KMC1 192354Z 32008KT 11/M02 A3026 RMK A01 T01101024  RH  039%=      5-min Rain = 0
KMC1 192355Z 32009KT 11/M02 A3026 RMK A01 T01101024  RH  039%=      5-min Rain = 0
KMC1 192356Z 32009KT 11/M02 A3026 RMK A01 T01091024  RH  039%=      5-min Rain = 0
KMC1 192357Z 32010KT 11/M02 A3026 RMK A01 T01091024  RH  039%=      5-min Rain = 0
KMC1 192358Z 33008KT 11/M02 A3026 RMK A01 T01091023  RH  040%=      5-min Rain = 0
KMC1 192359Z 32010KT 11/M02 A3026 RMK A01 T01081024  RH  040%=      5-min Rain = 0
KMC1 200000Z 33008KT 11/M02 A3026 RMK A01 T01081024  RH  040%=      5-min Rain = 0
KMC1 200001Z 32009KT 11/M02 A3026 RMK A01 T01071024  RH  040%=      5-min Rain = 0
KMC1 200002Z 32009KT 11/M02 A3026 RMK A01 T01071023  RH  040%=      5-min Rain = 0
KMC1 200003Z 33010KT 11/M02 A3027 RMK A01 T01071024  RH  040%=      5-min Rain = 0
KMC1 200004Z 32009KT 11/M02 A3027 RMK A01 T01071024  RH  040%=      5-min Rain = 0
KMC1 200005Z 33007KT 11/M02 A3027 RMK A01 T01071024  RH  040%=      5-min Rain = 0
KMC1 200006Z 32007KT 11/M02 A3026 RMK A01 T01061023  RH  040%=      5-min Rain = 0
KMC1 200007Z 33008KT 11/M02 A3027 RMK A01 T01051023  RH  040%=      5-min Rain = 0
KMC1 200008Z 33006KT 11/M02 A3027 RMK A01 T01051024  RH  041%=      5-min Rain = 0
KMC1 200009Z 34009KT 10/M02 A3027 RMK A01 T01041023  RH  041%=      5-min Rain = 0
KMC1 200010Z 33007KT 10/M02 A3027 RMK A01 T01041022  RH  041%=      5-min Rain = 0
KMC1 200011Z 33006KT 10/M02 A3027 RMK A01 T01031023  RH  041%=      5-min Rain = 0
KMC1 200012Z 34006KT 10/M02 A3027 RMK A01 T01021023  RH  042%=      5-min Rain = 0
KMC1 200013Z 34006KT 10/M02 A3027 RMK A01 T01021022  RH  042%=      5-min Rain = 0
KMC1 200014Z 33005KT 10/M02 A3027 RMK A01 T01011022  RH  042%=      5-min Rain = 0
KMC1 200015Z 33004KT 10/M02 A3027 RMK A01 T01001022  RH  042%=      5-min Rain = 0
KMC1 200016Z 33006KT 10/M02 A3027 RMK A01 T00991022  RH  043%=      5-min Rain = 0
KMC1 200017Z 34005KT 10/M02 A3027 RMK A01 T00991022  RH  043%=      5-min Rain = 0
KMC1 200018Z 33004KT 10/M02 A3027 RMK A01 T00981022  RH  043%=      5-min Rain = 0
KMC1 200019Z 33004KT 10/M02 A3027 RMK A01 T00981021  RH  043%=      5-min Rain = 0
KMC1 200020Z 34005KT 10/M02 A3027 RMK A01 T00971022  RH  043%=      5-min Rain = 0
KMC1 200021Z 34006KT 10/M02 A3027 RMK A01 T00971022  RH  043%=      5-min Rain = 0
KMC1 200022Z 34005KT 10/M02 A3027 RMK A01 T00971022  RH  043%=      5-min Rain = 0
KMC1 200023Z 34005KT 10/M02 A3027 RMK A01 T00971022  RH  043%=      5-min Rain = 0
KMC1 200024Z 33006KT 10/M02 A3027 RMK A01 T00961022  RH  044%=      5-min Rain = 0
KMC1 200025Z 34007KT 10/M02 A3027 RMK A01 T00961021  RH  044%=      5-min Rain = 0
KMC1 200026Z 34006KT 10/M02 A3027 RMK A01 T00961021  RH  044%=      5-min Rain = 0
KMC1 200027Z 33006KT 10/M02 A3027 RMK A01 T00961021  RH  044%=      5-min Rain = 0
KMC1 200028Z 34005KT 10/M02 A3027 RMK A01 T00961021  RH  044%=      5-min Rain = 0
KMC1 200029Z 33005KT 10/M02 A3027 RMK A01 T00961021  RH  044%=      5-min Rain = 0
KMC1 200030Z 34006KT 10/M02 A3027 RMK A01 T00961022  RH  044%=      5-min Rain = 0
KMC1 200031Z 33006KT 10/M02 A3027 RMK A01 T00951022  RH  044%=      5-min Rain = 0
KMC1 200032Z 34006KT 10/M02 A3027 RMK A01 T00951022  RH  044%=      5-min Rain = 0
KMC1 200033Z 34006KT 10/M02 A3027 RMK A01 T00961021  RH  044%=      5-min Rain = 0
KMC1 200034Z 33005KT 10/M02 A3027 RMK A01 T00961021  RH  044%=      5-min Rain = 0
KMC1 200035Z 35004KT 10/M02 A3027 RMK A01 T00951021  RH  044%=      5-min Rain = 0
KMC1 200036Z 35005KT 09/M02 A3027 RMK A01 T00931020  RH  045%=      5-min Rain = 0
KMC1 200037Z 35005KT 09/M02 A3027 RMK A01 T00931020  RH  045%=      5-min Rain = 0
KMC1 200038Z 34005KT 09/M02 A3027 RMK A01 T00911019  RH  046%=      5-min Rain = 0
KMC1 200039Z 35005KT 09/M02 A3027 RMK A01 T00901019  RH  046%=      5-min Rain = 0
KMC1 200040Z 35005KT 09/M02 A3027 RMK A01 T00891019  RH  046%=      5-min Rain = 0
KMC1 200041Z 34005KT 09/M02 A3027 RMK A01 T00891019  RH  047%=      5-min Rain = 0
KMC1 200042Z 34004KT 09/M02 A3027 RMK A01 T00881019  RH  047%=      5-min Rain = 0
KMC1 200043Z 34004KT 09/M02 A3027 RMK A01 T00871020  RH  047%=      5-min Rain = 0
KMC1 200044Z 34003KT 09/M02 A3027 RMK A01 T00871020  RH  047%=      5-min Rain = 0
KMC1 200045Z 34004KT 09/M02 A3027 RMK A01 T00871021  RH  047%=      5-min Rain = 0
KMC1 200046Z 34004KT 09/M02 A3027 RMK A01 T00871021  RH  047%=      5-min Rain = 0
KMC1 200047Z 34004KT 09/M02 A3027 RMK A01 T00881020  RH  047%=      5-min Rain = 0
KMC1 200048Z 34004KT 09/M02 A3027 RMK A01 T00871021  RH  047%=      5-min Rain = 0
KMC1 200049Z 34004KT 09/M02 A3027 RMK A01 T00871020  RH  047%=      5-min Rain = 0
KMC1 200050Z 34003KT 09/M02 A3027 RMK A01 T00861021  RH  047%=      5-min Rain = 0
KMC1 200051Z 34004KT 09/M02 A3028 RMK A01 T00861020  RH  047%=      5-min Rain = 0
KMC1 200052Z 34003KT 09/M02 A3028 RMK A01 T00851020  RH  048%=      5-min Rain = 0
KMC1 200053Z 34004KT 09/M02 A3028 RMK A01 T00851020  RH  048%=      5-min Rain = 0
KMC1 200054Z 35003KT 08/M02 A3028 RMK A01 T00841020  RH  048%=      5-min Rain = 0
KMC1 200055Z 34003KT 08/M02 A3028 RMK A01 T00841020  RH  048%=      5-min Rain = 0
KMC1 200056Z 34003KT 08/M02 A3028 RMK A01 T00841020  RH  048%=      5-min Rain = 0
KMC1 200057Z 34003KT 08/M02 A3028 RMK A01 T00841020  RH  048%=      5-min Rain = 0
KMC1 200058Z 34003KT 08/M02 A3028 RMK A01 T00841021  RH  048%=      5-min Rain = 0
KMC1 200059Z 34003KT 08/M02 A3028 RMK A01 T00831021  RH  048%=      5-min Rain = 0
KMC1 200100Z 33003KT 08/M02 A3028 RMK A01 T00831021  RH  048%=      5-min Rain = 0
KMC1 200101Z 33002KT 08/M02 A3028 RMK A01 T00831021  RH  048%=      5-min Rain = 0
KMC1 200102Z 33003KT 08/M02 A3028 RMK A01 T00831021  RH  048%=      5-min Rain = 0
KMC1 200103Z 33003KT 08/M02 A3028 RMK A01 T00831021  RH  048%=      5-min Rain = 0
KMC1 200104Z 33003KT 08/M02 A3028 RMK A01 T00821022  RH  048%=      5-min Rain = 0
KMC1 200105Z 33004KT 08/M02 A3028 RMK A01 T00821022  RH  048%=      5-min Rain = 0
KMC1 200106Z 34004KT 08/M02 A3028 RMK A01 T00821021  RH  048%=      5-min Rain = 0
KMC1 200107Z 34004KT 08/M02 A3028 RMK A01 T00821022  RH  048%=      5-min Rain = 0
KMC1 200108Z 34004KT 08/M02 A3028 RMK A01 T00821021  RH  048%=      5-min Rain = 0
KMC1 200109Z 34004KT 08/M02 A3028 RMK A01 T00811021  RH  048%=      5-min Rain = 0
KMC1 200110Z 34004KT 08/M02 A3028 RMK A01 T00811021  RH  049%=      5-min Rain = 0
KMC1 200111Z 34005KT 08/M02 A3028 RMK A01 T00801020  RH  049%=      5-min Rain = 0
KMC1 200112Z 35005KT 08/M02 A3028 RMK A01 T00791019  RH  050%=      5-min Rain = 0
KMC1 200113Z 35005KT 08/M02 A3028 RMK A01 T00791018  RH  050%=      5-min Rain = 0
KMC1 200114Z 35005KT 08/M02 A3028 RMK A01 T00781018  RH  051%=      5-min Rain = 0
KMC1 200115Z 35004KT 08/M02 A3028 RMK A01 T00781018  RH  051%=      5-min Rain = 0
KMC1 200116Z 35005KT 08/M02 A3028 RMK A01 T00781018  RH  051%=      5-min Rain = 0
KMC1 200117Z 35004KT 08/M02 A3028 RMK A01 T00781019  RH  050%=      5-min Rain = 0
KMC1 200118Z 36005KT 08/M02 A3028 RMK A01 T00781019  RH  050%=      5-min Rain = 0
KMC1 200119Z 36005KT 08/M02 A3028 RMK A01 T00781019  RH  050%=      5-min Rain = 0
KMC1 200120Z 36005KT 08/M02 A3028 RMK A01 T00781020  RH  050%=      5-min Rain = 0
KMC1 200121Z 36005KT 08/M02 A3028 RMK A01 T00781020  RH  050%=      5-min Rain = 0
KMC1 200122Z 00004KT 08/M02 A3028 RMK A01 T00781020  RH  050%=      5-min Rain = 0
KMC1 200123Z 36005KT 08/M02 A3028 RMK A01 T00781019  RH  050%=      5-min Rain = 0
KMC1 200124Z 00004KT 08/M02 A3028 RMK A01 T00781019  RH  050%=      5-min Rain = 0
KMC1 200125Z 00004KT 08/M02 A3028 RMK A01 T00771020  RH  050%=      5-min Rain = 0
KMC1 200126Z 36003KT 08/M02 A3028 RMK A01 T00771020  RH  050%=      5-min Rain = 0
KMC1 200127Z 00003KT 08/M02 A3028 RMK A01 T00771020  RH  050%=      5-min Rain = 0
KMC1 200128Z 01003KT 08/M02 A3028 RMK A01 T00761020  RH  050%=      5-min Rain = 0
KMC1 200129Z 01003KT 08/M02 A3028 RMK A01 T00751021  RH  051%=      5-min Rain = 0
KMC1 200130Z 01003KT 08/M02 A3028 RMK A01 T00751021  RH  051%=      5-min Rain = 0
KMC1 200131Z 01004KT 08/M02 A3028 RMK A01 T00751021  RH  051%=      5-min Rain = 0
KMC1 200132Z 01004KT 07/M02 A3028 RMK A01 T00741022  RH  051%=      5-min Rain = 0
KMC1 200133Z 01004KT 07/M02 A3028 RMK A01 T00741021  RH  051%=      5-min Rain = 0
KMC1 200134Z 01004KT 07/M02 A3028 RMK A01 T00741022  RH  051%=      5-min Rain = 0
KMC1 200135Z 01004KT 07/M02 A3028 RMK A01 T00741022  RH  051%=      5-min Rain = 0
KMC1 200136Z 01003KT 07/M02 A3029 RMK A01 T00731022  RH  051%=      5-min Rain = 0
KMC1 200137Z 01003KT 07/M02 A3029 RMK A01 T00731022  RH  051%=      5-min Rain = 0
KMC1 200138Z 36003KT 07/M02 A3029 RMK A01 T00721022  RH  051%=      5-min Rain = 0
KMC1 200139Z 00003KT 07/M02 A3029 RMK A01 T00721021  RH  051%=      5-min Rain = 0
KMC1 200140Z 00004KT 07/M02 A3029 RMK A01 T00711021  RH  052%=      5-min Rain = 0
KMC1 200141Z 00004KT 07/M02 A3029 RMK A01 T00711021  RH  052%=      5-min Rain = 0
KMC1 200142Z 36004KT 07/M02 A3029 RMK A01 T00711021  RH  052%=      5-min Rain = 0
KMC1 200143Z 36005KT 07/M02 A3029 RMK A01 T00691021  RH  053%=      5-min Rain = 0
KMC1 200144Z 36004KT 07/M02 A3029 RMK A01 T00691020  RH  053%=      5-min Rain = 0
KMC1 200145Z 35005KT 07/M02 A3029 RMK A01 T00691020  RH  053%=      5-min Rain = 0
KMC1 200146Z 36005KT 07/M02 A3029 RMK A01 T00681021  RH  053%=      5-min Rain = 0
KMC1 200147Z 36005KT 07/M02 A3029 RMK A01 T00681020  RH  053%=      5-min Rain = 0
KMC1 200148Z 35005KT 07/M02 A3029 RMK A01 T00681020  RH  053%=      5-min Rain = 0
KMC1 200149Z 35005KT 07/M02 A3029 RMK A01 T00681020  RH  053%=      5-min Rain = 0
KMC1 200150Z 35004KT 07/M02 A3029 RMK A01 T00681020  RH  054%=      5-min Rain = 0
KMC1 200151Z 35004KT 07/M02 A3029 RMK A01 T00671019  RH  054%=      5-min Rain = 0
KMC1 200152Z 35004KT 07/M02 A3029 RMK A01 T00661020  RH  054%=      5-min Rain = 0
KMC1 200153Z 35004KT 07/M02 A3029 RMK A01 T00651020  RH  055%=      5-min Rain = 0
KMC1 200154Z 35004KT 07/M02 A3029 RMK A01 T00651020  RH  055%=      5-min Rain = 0
KMC1 200155Z 35003KT 06/M02 A3029 RMK A01 T00641020  RH  055%=      5-min Rain = 0
KMC1 200156Z 35004KT 07/M02 A3029 RMK A01 T00651020  RH  055%=      5-min Rain = 0
KMC1 200157Z 35003KT 07/M02 A3029 RMK A01 T00651020  RH  055%=      5-min Rain = 0
KMC1 200158Z 35004KT 07/M02 A3029 RMK A01 T00651020  RH  055%=      5-min Rain = 0
KMC1 200159Z 35004KT 06/M02 A3029 RMK A01 T00641021  RH  055%=      5-min Rain = 0
KMC1 200200Z 35004KT 06/M02 A3029 RMK A01 T00641020  RH  055%=      5-min Rain = 0
KMC1 200201Z 35004KT 06/M02 A3029 RMK A01 T00641021  RH  055%=      5-min Rain = 0
KMC1 200202Z 35004KT 06/M02 A3029 RMK A01 T00631021  RH  055%=      5-min Rain = 0
KMC1 200203Z 35004KT 06/M02 A3029 RMK A01 T00631020  RH  055%=      5-min Rain = 0
KMC1 200204Z 35003KT 06/M02 A3029 RMK A01 T00631020  RH  055%=      5-min Rain = 0
KMC1 200205Z 35003KT 06/M02 A3029 RMK A01 T00621021  RH  055%=      5-min Rain = 0
KMC1 200206Z 35003KT 06/M02 A3029 RMK A01 T00621021  RH  055%=      5-min Rain = 0
KMC1 200207Z 35003KT 06/M02 A3029 RMK A01 T00621021  RH  055%=      5-min Rain = 0
KMC1 200208Z 35003KT 06/M02 A3029 RMK A01 T00621022  RH  055%=      5-min Rain = 0
KMC1 200209Z 35003KT 06/M02 A303 RMK A01 T00621022  RH  055%=      5-min Rain = 0
KMC1 200210Z 35003KT 06/M02 A303 RMK A01 T00621022  RH  055%=      5-min Rain = 0
KMC1 200211Z 35003KT 06/M02 A303 RMK A01 T00621021  RH  055%=      5-min Rain = 0
KMC1 200212Z 35002KT 06/M02 A303 RMK A01 T00621022  RH  055%=      5-min Rain = 0
KMC1 200213Z 36002KT 06/M02 A303 RMK A01 T00611022  RH  055%=      5-min Rain = 0
KMC1 200214Z 35002KT 06/M02 A303 RMK A01 T00611022  RH  055%=      5-min Rain = 0
KMC1 200215Z 35002KT 06/M02 A303 RMK A01 T00611022  RH  055%=      5-min Rain = 0
KMC1 200216Z 35002KT 06/M02 A303 RMK A01 T00611022  RH  055%=      5-min Rain = 0
KMC1 200217Z 35002KT 06/M02 A303 RMK A01 T00611022  RH  055%=      5-min Rain = 0
KMC1 200218Z 36002KT 06/M02 A303 RMK A01 T00611022  RH  055%=      5-min Rain = 0
KMC1 200219Z 00002KT 06/M02 A303 RMK A01 T00611022  RH  055%=      5-min Rain = 0
KMC1 200220Z 00002KT 06/M02 A303 RMK A01 T00611022  RH  055%=      5-min Rain = 0
KMC1 200221Z 00003KT 06/M02 A303 RMK A01 T00611022  RH  055%=      5-min Rain = 0
KMC1 200222Z 00003KT 06/M02 A303 RMK A01 T00611022  RH  055%=      5-min Rain = 0
KMC1 200223Z 00003KT 06/M02 A303 RMK A01 T00611022  RH  055%=      5-min Rain = 0
KMC1 200224Z 00003KT 06/M02 A303 RMK A01 T00611022  RH  055%=      5-min Rain = 0
KMC1 200225Z 35003KT 06/M02 A303 RMK A01 T00601023  RH  055%=      5-min Rain = 0
KMC1 200226Z 36003KT 06/M02 A303 RMK A01 T00601022  RH  056%=      5-min Rain = 0
KMC1 200227Z 36003KT 06/M02 A303 RMK A01 T00591023  RH  056%=      5-min Rain = 0
KMC1 200228Z 36003KT 06/M02 A303 RMK A01 T00591023  RH  056%=      5-min Rain = 0
KMC1 200229Z 36003KT 06/M02 A303 RMK A01 T00581023  RH  056%=      5-min Rain = 0
KMC1 200230Z 00003KT 06/M02 A303 RMK A01 T00581024  RH  056%=      5-min Rain = 0
KMC1 200231Z 35003KT 06/M02 A303 RMK A01 T00581023  RH  056%=      5-min Rain = 0
KMC1 200232Z 36003KT 06/M02 A3031 RMK A01 T00581023  RH  056%=      5-min Rain = 0
KMC1 200233Z 36003KT 06/M02 A3031 RMK A01 T00571023  RH  056%=      5-min Rain = 0
KMC1 200234Z 36003KT 06/M02 A3031 RMK A01 T00561023  RH  056%=      5-min Rain = 0
KMC1 200235Z 00003KT 06/M02 A3031 RMK A01 T00561023  RH  057%=      5-min Rain = 0
KMC1 200236Z 36003KT 06/M02 A3031 RMK A01 T00561023  RH  057%=      5-min Rain = 0
KMC1 200237Z 35003KT 06/M02 A3031 RMK A01 T00561023  RH  057%=      5-min Rain = 0
KMC1 200238Z 35002KT 06/M02 A3031 RMK A01 T00561023  RH  057%=      5-min Rain = 0
KMC1 200239Z 35003KT 06/M02 A3031 RMK A01 T00561023  RH  057%=      5-min Rain = 0
KMC1 200240Z 34002KT 06/M02 A3031 RMK A01 T00551023  RH  057%=      5-min Rain = 0
KMC1 200241Z 34002KT 06/M02 A3031 RMK A01 T00551023  RH  057%=      5-min Rain = 0
KMC1 200242Z 34003KT 06/M02 A3031 RMK A01 T00551023  RH  057%=      5-min Rain = 0
KMC1 200243Z 34002KT 05/M02 A3031 RMK A01 T00541023  RH  057%=      5-min Rain = 0
KMC1 200244Z 33003KT 05/M02 A3031 RMK A01 T00541024  RH  057%=      5-min Rain = 0
KMC1 200245Z 33002KT 05/M02 A3031 RMK A01 T00541023  RH  058%=      5-min Rain = 0
KMC1 200246Z 33002KT 05/M02 A3031 RMK A01 T00531024  RH  058%=      5-min Rain = 0
KMC1 200247Z 33002KT 05/M02 A3031 RMK A01 T00521023  RH  058%=      5-min Rain = 0
KMC1 200248Z 34002KT 05/M02 A3031 RMK A01 T00521024  RH  058%=      5-min Rain = 0
KMC1 200249Z 33002KT 05/M02 A3031 RMK A01 T00511024  RH  059%=      5-min Rain = 0
KMC1 200250Z 33001KT 05/M02 A3031 RMK A01 T00501024  RH  059%=      5-min Rain = 0
KMC1 200251Z 34001KT 05/M02 A3031 RMK A01 T00491024  RH  059%=      5-min Rain = 0
KMC1 200252Z 35002KT 05/M02 A3032 RMK A01 T00481023  RH  060%=      5-min Rain = 0
KMC1 200253Z 35002KT 05/M02 A3032 RMK A01 T00471023  RH  060%=      5-min Rain = 0
KMC1 200254Z 34002KT 05/M02 A3032 RMK A01 T00471023  RH  061%=      5-min Rain = 0
KMC1 200255Z 35002KT 05/M02 A3032 RMK A01 T00471022  RH  061%=      5-min Rain = 0
KMC1 200256Z 35002KT 05/M02 A3032 RMK A01 T00471022  RH  061%=      5-min Rain = 0
KMC1 200257Z 35002KT 05/M02 A3032 RMK A01 T00471022  RH  061%=      5-min Rain = 0
KMC1 200258Z 35003KT 05/M02 A3032 RMK A01 T00471022  RH  061%=      5-min Rain = 0
KMC1 200259Z 35003KT 05/M02 A3032 RMK A01 T00481023  RH  060%=      5-min Rain = 0
KMC1 200300Z 35003KT 05/M02 A3032 RMK A01 T00481022  RH  060%=      5-min Rain = 0
KMC1 200301Z 35003KT 05/M02 A3032 RMK A01 T00491022  RH  060%=      5-min Rain = 0
KMC1 200302Z 35003KT 05/M02 A3032 RMK A01 T00491022  RH  060%=      5-min Rain = 0
KMC1 200303Z 35003KT 05/M02 A3032 RMK A01 T00491023  RH  060%=      5-min Rain = 0
KMC1 200304Z 34003KT 05/M02 A3032 RMK A01 T00501023  RH  060%=      5-min Rain = 0
KMC1 200305Z 34003KT 05/M02 A3032 RMK A01 T00491023  RH  060%=      5-min Rain = 0
KMC1 200306Z 34002KT 05/M02 A3032 RMK A01 T00491023  RH  059%=      5-min Rain = 0
KMC1 200307Z 34002KT 05/M02 A3032 RMK A01 T00491023  RH  059%=      5-min Rain = 0
KMC1 200308Z 34002KT 05/M02 A3032 RMK A01 T00491024  RH  060%=      5-min Rain = 0
KMC1 200309Z 33002KT 05/M02 A3032 RMK A01 T00481024  RH  060%=      5-min Rain = 0
KMC1 200310Z 34002KT 05/M03 A3032 RMK A01 T00471025  RH  060%=      5-min Rain = 0
KMC1 200311Z 34002KT 05/M02 A3032 RMK A01 T00461024  RH  060%=      5-min Rain = 0
KMC1 200312Z 35002KT 05/M02 A3032 RMK A01 T00451024  RH  061%=      5-min Rain = 0
KMC1 200313Z 36002KT 04/M03 A3032 RMK A01 T00441025  RH  061%=      5-min Rain = 0
KMC1 200314Z 36002KT 04/M03 A3032 RMK A01 T00431025  RH  061%=      5-min Rain = 0
KMC1 200315Z 00002KT 04/M03 A3032 RMK A01 T00431025  RH  061%=      5-min Rain = 0
KMC1 200316Z 35003KT 04/M03 A3032 RMK A01 T00421025  RH  062%=      5-min Rain = 0
KMC1 200317Z 36002KT 04/M03 A3032 RMK A01 T00421025  RH  062%=      5-min Rain = 0
KMC1 200318Z 00002KT 04/M03 A3032 RMK A01 T00411025  RH  062%=      5-min Rain = 0
KMC1 200319Z 00003KT 04/M03 A3032 RMK A01 T00401025  RH  062%=      5-min Rain = 0
KMC1 200320Z 01003KT 04/M03 A3032 RMK A01 T00401025  RH  063%=      5-min Rain = 0
KMC1 200321Z 00003KT 04/M02 A3032 RMK A01 T00401024  RH  063%=      5-min Rain = 0
KMC1 200322Z 00003KT 04/M02 A3032 RMK A01 T00411024  RH  062%=      5-min Rain = 0
KMC1 200323Z 01003KT 04/M02 A3032 RMK A01 T00431024  RH  062%=      5-min Rain = 0
KMC1 200324Z 01004KT 05/M02 A3032 RMK A01 T00451024  RH  061%=      5-min Rain = 0
KMC1 200325Z 01004KT 05/M02 A3032 RMK A01 T00461024  RH  060%=      5-min Rain = 0
KMC1 200326Z 01004KT 05/M02 A3032 RMK A01 T00471024  RH  060%=      5-min Rain = 0
KMC1 200327Z 01004KT 05/M02 A3032 RMK A01 T00481024  RH  060%=      5-min Rain = 0
KMC1 200328Z 01004KT 05/M02 A3032 RMK A01 T00481024  RH  060%=      5-min Rain = 0
KMC1 200329Z 02004KT 05/M02 A3032 RMK A01 T00481024  RH  060%=      5-min Rain = 0
KMC1 200330Z 02003KT 05/M03 A3031 RMK A01 T00481025  RH  059%=      5-min Rain = 0
KMC1 200331Z 02004KT 05/M03 A3031 RMK A01 T00481025  RH  059%=      5-min Rain = 0
KMC1 200332Z 02004KT 05/M03 A3031 RMK A01 T00481025  RH  059%=      5-min Rain = 0
KMC1 200333Z 02004KT 05/M03 A3031 RMK A01 T00481025  RH  059%=      5-min Rain = 0
KMC1 200334Z 02004KT 05/M03 A3031 RMK A01 T00471026  RH  059%=      5-min Rain = 0
KMC1 200335Z 03004KT 05/M03 A3031 RMK A01 T00461026  RH  060%=      5-min Rain = 0
KMC1 200336Z 03003KT 05/M03 A3031 RMK A01 T00451026  RH  060%=      5-min Rain = 0
KMC1 200337Z 03003KT 05/M03 A3031 RMK A01 T00451026  RH  060%=      5-min Rain = 0
KMC1 200338Z 03003KT 04/M03 A3031 RMK A01 T00441027  RH  060%=      5-min Rain = 0
KMC1 200339Z 03003KT 04/M03 A3031 RMK A01 T00441027  RH  060%=      5-min Rain = 0
KMC1 200340Z 04002KT 04/M03 A3031 RMK A01 T00431027  RH  061%=      5-min Rain = 0
KMC1 200341Z 05002KT 04/M03 A3031 RMK A01 T00411028  RH  061%=      5-min Rain = 0
KMC1 200342Z 05002KT 04/M03 A3031 RMK A01 T00401027  RH  062%=      5-min Rain = 0
KMC1 200343Z 06002KT 04/M03 A3031 RMK A01 T00381028  RH  062%=      5-min Rain = 0
KMC1 200344Z 06002KT 04/M03 A3031 RMK A01 T00381027  RH  062%=      5-min Rain = 0
KMC1 200345Z 06002KT 04/M03 A3031 RMK A01 T00381027  RH  063%=      5-min Rain = 0
KMC1 200346Z 06002KT 04/M03 A3031 RMK A01 T00371027  RH  063%=      5-min Rain = 0
KMC1 200347Z 06001KT 04/M03 A3031 RMK A01 T00371027  RH  063%=      5-min Rain = 0
KMC1 200348Z 07001KT 04/M03 A3031 RMK A01 T00371027  RH  063%=      5-min Rain = 0
KMC1 200349Z 07001KT 04/M03 A3031 RMK A01 T00361028  RH  063%=      5-min Rain = 0
KMC1 200350Z 08001KT 04/M03 A3031 RMK A01 T00361028  RH  063%=      5-min Rain = 0
KMC1 200351Z 09001KT 04/M03 A3031 RMK A01 T00351028  RH  063%=      5-min Rain = 0
KMC1 200352Z 09001KT 04/M03 A3031 RMK A01 T00351028  RH  064%=      5-min Rain = 0
KMC1 200353Z 07001KT 04/M03 A3031 RMK A01 T00351027  RH  064%=      5-min Rain = 0
KMC1 200354Z 06001KT 04/M03 A3031 RMK A01 T00351028  RH  064%=      5-min Rain = 0
KMC1 200355Z 06000KT 03/M03 A3031 RMK A01 T00341027  RH  064%=      5-min Rain = 0
KMC1 200356Z 05000KT 03/M03 A3031 RMK A01 T00321027  RH  065%=      5-min Rain = 0
KMC1 200357Z 03000KT 03/M03 A3031 RMK A01 T00311027  RH  066%=      5-min Rain = 0
KMC1 200358Z 02000KT 03/M03 A3031 RMK A01 T00291027  RH  066%=      5-min Rain = 0
KMC1 200359Z 02000KT 03/M03 A3031 RMK A01 T00281027  RH  067%=      5-min Rain = 0
KMC1 200400Z 02001KT 03/M03 A3031 RMK A01 T00261026  RH  068%=      5-min Rain = 0
KMC1 200401Z 02001KT 03/M03 A3031 RMK A01 T00261026  RH  069%=      5-min Rain = 0
KMC1 200402Z 02000KT 03/M03 A3031 RMK A01 T00251027  RH  068%=      5-min Rain = 0
KMC1 200403Z 00000KT 02/M03 A3031 RMK A01 T00241028  RH  069%=      5-min Rain = 0
KMC1 200404Z 00000KT 02/M03 A3032 RMK A01 T00241028  RH  068%=      5-min Rain = 0
KMC1 200405Z 00000KT 02/M03 A3032 RMK A01 T00231029  RH  068%=      5-min Rain = 0
KMC1 200406Z 00000KT 02/M03 A3032 RMK A01 T00221029  RH  069%=      5-min Rain = 0
KMC1 200407Z 24001KT 02/M03 A3032 RMK A01 T00201027  RH  071%=      5-min Rain = 0
KMC1 200408Z 23002KT 02/M03 A3032 RMK A01 T00181029  RH  071%=      5-min Rain = 0
KMC1 200409Z 22002KT 02/M03 A3032 RMK A01 T00151031  RH  071%=      5-min Rain = 0
KMC1 200410Z 20001KT 01/M03 A3032 RMK A01 T00141032  RH  072%=      5-min Rain = 0
KMC1 200411Z 20001KT 01/M03 A3032 RMK A01 T00131031  RH  072%=      5-min Rain = 0
KMC1 200412Z 20000KT 01/M03 A3032 RMK A01 T00121032  RH  073%=      5-min Rain = 0
KMC1 200413Z 00000KT 01/M03 A3032 RMK A01 T00111032  RH  073%=      5-min Rain = 0
KMC1 200414Z 00000KT 01/M03 A3032 RMK A01 T00111031  RH  073%=      5-min Rain = 0
KMC1 200415Z 00000KT 01/M03 A3032 RMK A01 T00111031  RH  074%=      5-min Rain = 0
KMC1 200416Z 20001KT 01/M03 A3032 RMK A01 T00101031  RH  074%=      5-min Rain = 0
KMC1 200417Z 20001KT 01/M03 A3033 RMK A01 T00091031  RH  075%=      5-min Rain = 0
KMC1 200418Z 21001KT 01/M03 A3033 RMK A01 T00081031  RH  075%=      5-min Rain = 0
KMC1 200419Z 22001KT 01/M03 A3033 RMK A01 T00071030  RH  076%=      5-min Rain = 0
KMC1 200420Z 22002KT 01/M03 A3033 RMK A01 T00071030  RH  076%=      5-min Rain = 0
KMC1 200421Z 24001KT 01/M03 A3033 RMK A01 T00061030  RH  077%=      5-min Rain = 0
KMC1 200422Z 26001KT 01/M03 A3033 RMK A01 T00061030  RH  077%=      5-min Rain = 0
KMC1 200423Z 27000KT 01/M03 A3033 RMK A01 T00061030  RH  077%=      5-min Rain = 0
KMC1 200424Z 27001KT 01/M03 A3033 RMK A01 T00061029  RH  077%=      5-min Rain = 0
KMC1 200425Z 00000KT 01/M03 A3033 RMK A01 T00061030  RH  077%=      5-min Rain = 0
KMC1 200426Z 00000KT 01/M03 A3033 RMK A01 T00061029  RH  077%=      5-min Rain = 0
KMC1 200427Z 00000KT 01/M03 A3033 RMK A01 T00061029  RH  077%=      5-min Rain = 0
KMC1 200428Z 36001KT 01/M03 A3033 RMK A01 T00071029  RH  077%=      5-min Rain = 0
KMC1 200429Z 34000KT 01/M03 A3033 RMK A01 T00071029  RH  077%=      5-min Rain = 0
KMC1 200430Z 00000KT 01/M03 A3033 RMK A01 T00071029  RH  077%=      5-min Rain = 0
KMC1 200431Z 34000KT 01/M03 A3033 RMK A01 T00071029  RH  076%=      5-min Rain = 0
KMC1 200432Z 34000KT 01/M03 A3033 RMK A01 T00081030  RH  076%=      5-min Rain = 0
KMC1 200433Z 33000KT 01/M03 A3033 RMK A01 T00081030  RH  076%=      5-min Rain = 0
KMC1 200434Z 33000KT 01/M03 A3033 RMK A01 T00081030  RH  076%=      5-min Rain = 0
KMC1 200435Z 33000KT 01/M03 A3033 RMK A01 T00081030  RH  076%=      5-min Rain = 0
KMC1 200436Z 33000KT 01/M03 A3033 RMK A01 T00091030  RH  075%=      5-min Rain = 0
KMC1 200437Z 00000KT 01/M03 A3033 RMK A01 T00101030  RH  075%=      5-min Rain = 0
KMC1 200438Z 00000KT 01/M03 A3033 RMK A01 T00111030  RH  074%=      5-min Rain = 0
KMC1 200439Z 00000KT 01/M03 A3033 RMK A01 T00111031  RH  074%=      5-min Rain = 0
KMC1 200440Z 00000KT 01/M03 A3033 RMK A01 T00091032  RH  074%=      5-min Rain = 0
KMC1 200441Z 00000KT 01/M03 A3033 RMK A01 T00071032  RH  075%=      5-min Rain = 0
KMC1 200442Z 00000KT 01/M03 A3033 RMK A01 T00061032  RH  076%=      5-min Rain = 0
KMC1 200443Z 00000KT 01/M03 A3033 RMK A01 T00051031  RH  077%=      5-min Rain = 0
KMC1 200444Z 00000KT 01/M03 A3034 RMK A01 T00051031  RH  077%=      5-min Rain = 0
KMC1 200445Z 00000KT 01/M03 A3034 RMK A01 T00061030  RH  077%=      5-min Rain = 0
KMC1 200446Z 24001KT 01/M03 A3034 RMK A01 T00071030  RH  076%=      5-min Rain = 0
KMC1 200447Z 23002KT 01/M03 A3034 RMK A01 T00071031  RH  076%=      5-min Rain = 0
KMC1 200448Z 22003KT 00/M03 A3034 RMK A01 T00041032  RH  076%=      5-min Rain = 0
KMC1 200449Z 23002KT 00/M03 A3034 RMK A01 T00031032  RH  077%=      5-min Rain = 0
KMC1 200450Z 21003KT 00/M03 A3034 RMK A01 T00011033  RH  078%=      5-min Rain = 0
KMC1 200451Z 20003KT 00/03 A3034 RMK A01 T00-00-33  RH  079%=      5-min Rain = 0
KMC1 200452Z 20002KT M00/M03 A3034 RMK A01 T10011032  RH  079%=      5-min Rain = 0
KMC1 200453Z 20002KT 00/03 A3034 RMK A01 T00000-30  RH  080%=      5-min Rain = 0
KMC1 200454Z 21002KT 00/M03 A3034 RMK A01 T00011030  RH  079%=      5-min Rain = 0
KMC1 200455Z 21002KT 00/M03 A3034 RMK A01 T00031030  RH  079%=      5-min Rain = 0
KMC1 200456Z 21002KT 00/M03 A3034 RMK A01 T00031030  RH  079%=      5-min Rain = 0
KMC1 200457Z 20003KT 00/M03 A3034 RMK A01 T00031030  RH  078%=      5-min Rain = 0
KMC1 200458Z 20002KT 00/M03 A3034 RMK A01 T00031030  RH  079%=      5-min Rain = 0
KMC1 200459Z 19002KT 00/M03 A3034 RMK A01 T00031030  RH  078%=      5-min Rain = 0
KMC1 200500Z 18003KT 00/M03 A3034 RMK A01 T00031031  RH  078%=      5-min Rain = 0
KMC1 200501Z 18003KT 00/M03 A3034 RMK A01 T00021031  RH  078%=      5-min Rain = 0
KMC1 200502Z 18003KT 00/M03 A3034 RMK A01 T00011031  RH  079%=      5-min Rain = 0
KMC1 200503Z 18002KT 00/M03 A3034 RMK A01 T00011031  RH  079%=      5-min Rain = 0
KMC1 200504Z 18002KT 00/M03 A3034 RMK A01 T00011030  RH  080%=      5-min Rain = 0
KMC1 200505Z 18002KT 00/M03 A3034 RMK A01 T00011029  RH  080%=      5-min Rain = 0
KMC1 200506Z 20002KT 00/M03 A3034 RMK A01 T00011029  RH  080%=      5-min Rain = 0
KMC1 200507Z 20002KT 00/M03 A3034 RMK A01 T00011030  RH  080%=      5-min Rain = 0
KMC1 200508Z 20002KT 00/M03 A3034 RMK A01 T00021030  RH  079%=      5-min Rain = 0
KMC1 200509Z 21002KT 00/M03 A3034 RMK A01 T00011031  RH  079%=      5-min Rain = 0
KMC1 200510Z 22002KT 00/M03 A3034 RMK A01 T00021030  RH  079%=      5-min Rain = 0
KMC1 200511Z 22002KT 00/M03 A3035 RMK A01 T00031030  RH  079%=      5-min Rain = 0
KMC1 200512Z 22002KT 00/M03 A3035 RMK A01 T00031030  RH  078%=      5-min Rain = 0
KMC1 200513Z 23002KT 00/M03 A3035 RMK A01 T00031031  RH  078%=      5-min Rain = 0
KMC1 200514Z 23002KT 00/M03 A3035 RMK A01 T00021031  RH  078%=      5-min Rain = 0
KMC1 200515Z 25002KT 00/M03 A3035 RMK A01 T00031030  RH  079%=      5-min Rain = 0
KMC1 200516Z 26002KT 00/M03 A3035 RMK A01 T00011031  RH  079%=      5-min Rain = 0
KMC1 200517Z 24002KT M00/M03 A3035 RMK A01 T10021033  RH  079%=      5-min Rain = 0
KMC1 200518Z 24002KT M00/M03 A3035 RMK A01 T10041034  RH  080%=      5-min Rain = 0
KMC1 200519Z 22001KT M01/M04 A3035 RMK A01 T10061035  RH  081%=      5-min Rain = 0
KMC1 200520Z 20002KT M01/M04 A3035 RMK A01 T10071035  RH  081%=      5-min Rain = 0
KMC1 200521Z 19001KT M01/M04 A3035 RMK A01 T10081036  RH  082%=      5-min Rain = 0
KMC1 200522Z 18001KT M01/M04 A3035 RMK A01 T10091036  RH  082%=      5-min Rain = 0
KMC1 200523Z 18000KT M01/M04 A3035 RMK A01 T10101036  RH  083%=      5-min Rain = 0
KMC1 200524Z 00000KT M01/M04 A3035 RMK A01 T10101035  RH  083%=      5-min Rain = 0
KMC1 200525Z 00000KT M01/M03 A3035 RMK A01 T10101034  RH  084%=      5-min Rain = 0
KMC1 200526Z 00000KT M01/M03 A3035 RMK A01 T10101033  RH  084%=      5-min Rain = 0
KMC1 200527Z 00000KT M01/M03 A3035 RMK A01 T10091033  RH  084%=      5-min Rain = 0
KMC1 200528Z 19000KT M01/M03 A3036 RMK A01 T10091033  RH  084%=      5-min Rain = 0
KMC1 200529Z 00000KT M01/M03 A3036 RMK A01 T10091034  RH  083%=      5-min Rain = 0
KMC1 200530Z 00000KT M01/M03 A3035 RMK A01 T10091033  RH  083%=      5-min Rain = 0
KMC1 200531Z 00000KT M01/M03 A3035 RMK A01 T10091033  RH  084%=      5-min Rain = 0
KMC1 200532Z 00000KT M01/M03 A3035 RMK A01 T10081033  RH  083%=      5-min Rain = 0
KMC1 200533Z 00000KT M01/M03 A3035 RMK A01 T10081033  RH  083%=      5-min Rain = 0
KMC1 200534Z 00000KT M01/M03 A3035 RMK A01 T10081034  RH  083%=      5-min Rain = 0
KMC1 200535Z 00000KT M01/M03 A3035 RMK A01 T10081033  RH  083%=      5-min Rain = 0
KMC1 200536Z 00000KT M01/M03 A3035 RMK A01 T10081034  RH  083%=      5-min Rain = 0
KMC1 200537Z 00000KT M01/M03 A3035 RMK A01 T10091034  RH  083%=      5-min Rain = 0
KMC1 200538Z 26001KT M01/M03 A3035 RMK A01 T10091034  RH  083%=      5-min Rain = 0
KMC1 200539Z 27002KT M01/M04 A3036 RMK A01 T10111035  RH  084%=      5-min Rain = 0
KMC1 200540Z 26002KT M01/M04 A3036 RMK A01 T10131037  RH  084%=      5-min Rain = 0
KMC1 200541Z 25002KT M01/M04 A3036 RMK A01 T10141038  RH  084%=      5-min Rain = 0
KMC1 200542Z 25001KT M02/M04 A3036 RMK A01 T10151038  RH  085%=      5-min Rain = 0
KMC1 200543Z 25001KT M02/M04 A3036 RMK A01 T10161037  RH  085%=      5-min Rain = 0
KMC1 200544Z 00000KT M02/M04 A3036 RMK A01 T10161037  RH  086%=      5-min Rain = 0
KMC1 200545Z 25000KT M02/M04 A3036 RMK A01 T10161036  RH  086%=      5-min Rain = 0
KMC1 200546Z 25000KT M02/M04 A3036 RMK A01 T10161036  RH  086%=      5-min Rain = 0
KMC1 200547Z 23001KT M02/M04 A3036 RMK A01 T10161036  RH  087%=      5-min Rain = 0
KMC1 200548Z 22002KT M02/M04 A3036 RMK A01 T10171036  RH  087%=      5-min Rain = 0
KMC1 200549Z 23002KT M02/M04 A3036 RMK A01 T10171035  RH  087%=      5-min Rain = 0
KMC1 200550Z 23003KT M02/M04 A3036 RMK A01 T10171036  RH  087%=      5-min Rain = 0
KMC1 200551Z 22003KT M02/M04 A3036 RMK A01 T10181037  RH  087%=      5-min Rain = 0
KMC1 200552Z 22003KT M02/M04 A3036 RMK A01 T10181037  RH  087%=      5-min Rain = 0
KMC1 200553Z 21002KT M02/M04 A3035 RMK A01 T10191037  RH  087%=      5-min Rain = 0
KMC1 200554Z 21001KT M02/M04 A3035 RMK A01 T10181037  RH  087%=      5-min Rain = 0
KMC1 200555Z 20002KT M02/M04 A3035 RMK A01 T10191036  RH  088%=      5-min Rain = 0
KMC1 200556Z 18002KT M02/M04 A3034 RMK A01 T10181036  RH  088%=      5-min Rain = 0
KMC1 200557Z 18002KT M02/M04 A3034 RMK A01 T10191037  RH  088%=      5-min Rain = 0
KMC1 200558Z 18002KT M02/M04 A3034 RMK A01 T10191037  RH  088%=      5-min Rain = 0
KMC1 200559Z 20002KT M02/M04 A3035 RMK A01 T10191036  RH  088%=      5-min Rain = 0

Page generated in 0.146 seconds.